<?xml version="1.0" encoding="UTF-8" standalone="no" ?>
<gpx xmlns="http://www.topografix.com/GPX/1/1" xmlns:xsi="http://www.w3.org/2001/XMLSchema-instance" xsi:schemaLocation="http://www.topografix.com/GPX/1/1 http://www.topografix.com/GPX/1/1/gpx.xsd" version="1.1" creator="VisuGPX - https://www.visugpx.com">
  <metadata>
    <name>randonnée mairy</name>
    <desc><![CDATA[impossible d aller a mairy trop de poussieres du aux camions]]></desc>
  </metadata>
  <trk>
    <name><![CDATA[Tracé actuel: 16 AOU 2018 12:55]]></name>
    <trkseg>
      <trkpt lat="49.63464" lon="4.98033">
        <ele>178.46</ele>
        <time>2018-08-16T10:55:06Z</time>
      </trkpt>
      <trkpt lat="49.63465" lon="4.98017">
        <ele>177.98</ele>
        <time>2018-08-16T10:55:33Z</time>
      </trkpt>
      <trkpt lat="49.63467" lon="4.98022">
        <ele>177.5</ele>
        <time>2018-08-16T10:55:44Z</time>
      </trkpt>
      <trkpt lat="49.63467" lon="4.98029">
        <ele>177.5</ele>
        <time>2018-08-16T10:55:46Z</time>
      </trkpt>
      <trkpt lat="49.63448" lon="4.98049">
        <ele>174.14</ele>
        <time>2018-08-16T10:56:29Z</time>
      </trkpt>
      <trkpt lat="49.6344" lon="4.98031">
        <ele>169.81</ele>
        <time>2018-08-16T10:56:44Z</time>
      </trkpt>
      <trkpt lat="49.63426" lon="4.9802">
        <ele>168.37</ele>
        <time>2018-08-16T10:56:56Z</time>
      </trkpt>
      <trkpt lat="49.63421" lon="4.98019">
        <ele>170.77</ele>
        <time>2018-08-16T10:57:01Z</time>
      </trkpt>
      <trkpt lat="49.63412" lon="4.9801">
        <ele>175.58</ele>
        <time>2018-08-16T10:57:14Z</time>
      </trkpt>
      <trkpt lat="49.63401" lon="4.97993">
        <ele>177.02</ele>
        <time>2018-08-16T10:57:27Z</time>
      </trkpt>
      <trkpt lat="49.63396" lon="4.97981">
        <ele>177.98</ele>
        <time>2018-08-16T10:57:38Z</time>
      </trkpt>
      <trkpt lat="49.63393" lon="4.97969">
        <ele>180.87</ele>
        <time>2018-08-16T10:57:48Z</time>
      </trkpt>
      <trkpt lat="49.63386" lon="4.9795">
        <ele>181.35</ele>
        <time>2018-08-16T10:58:02Z</time>
      </trkpt>
      <trkpt lat="49.63385" lon="4.97943">
        <ele>181.35</ele>
        <time>2018-08-16T10:58:06Z</time>
      </trkpt>
      <trkpt lat="49.63388" lon="4.97935">
        <ele>181.83</ele>
        <time>2018-08-16T10:58:11Z</time>
      </trkpt>
      <trkpt lat="49.63394" lon="4.97917">
        <ele>181.35</ele>
        <time>2018-08-16T10:58:26Z</time>
      </trkpt>
      <trkpt lat="49.63397" lon="4.97914">
        <ele>181.35</ele>
        <time>2018-08-16T10:58:30Z</time>
      </trkpt>
      <trkpt lat="49.63404" lon="4.97912">
        <ele>181.35</ele>
        <time>2018-08-16T10:58:35Z</time>
      </trkpt>
      <trkpt lat="49.63419" lon="4.97902">
        <ele>179.42</ele>
        <time>2018-08-16T10:58:49Z</time>
      </trkpt>
      <trkpt lat="49.6343" lon="4.97899">
        <ele>178.94</ele>
        <time>2018-08-16T10:59:01Z</time>
      </trkpt>
      <trkpt lat="49.63449" lon="4.97887">
        <ele>175.58</ele>
        <time>2018-08-16T10:59:17Z</time>
      </trkpt>
      <trkpt lat="49.63462" lon="4.97866">
        <ele>173.17</ele>
        <time>2018-08-16T10:59:33Z</time>
      </trkpt>
      <trkpt lat="49.63464" lon="4.97864">
        <ele>173.17</ele>
        <time>2018-08-16T10:59:35Z</time>
      </trkpt>
      <trkpt lat="49.63469" lon="4.97856">
        <ele>172.21</ele>
        <time>2018-08-16T10:59:41Z</time>
      </trkpt>
      <trkpt lat="49.6347" lon="4.97852">
        <ele>171.73</ele>
        <time>2018-08-16T10:59:44Z</time>
      </trkpt>
      <trkpt lat="49.63479" lon="4.97846">
        <ele>172.69</ele>
        <time>2018-08-16T10:59:55Z</time>
      </trkpt>
      <trkpt lat="49.63481" lon="4.97843">
        <ele>172.69</ele>
        <time>2018-08-16T10:59:58Z</time>
      </trkpt>
      <trkpt lat="49.63489" lon="4.97825">
        <ele>172.69</ele>
        <time>2018-08-16T11:00:11Z</time>
      </trkpt>
      <trkpt lat="49.63498" lon="4.97812">
        <ele>168.37</ele>
        <time>2018-08-16T11:00:26Z</time>
      </trkpt>
      <trkpt lat="49.63506" lon="4.97802">
        <ele>165.48</ele>
        <time>2018-08-16T11:00:37Z</time>
      </trkpt>
      <trkpt lat="49.6351" lon="4.97796">
        <ele>164.52</ele>
        <time>2018-08-16T11:00:41Z</time>
      </trkpt>
      <trkpt lat="49.63513" lon="4.9779">
        <ele>164.04</ele>
        <time>2018-08-16T11:00:45Z</time>
      </trkpt>
      <trkpt lat="49.63523" lon="4.97786">
        <ele>167.89</ele>
        <time>2018-08-16T11:00:54Z</time>
      </trkpt>
      <trkpt lat="49.63532" lon="4.97769">
        <ele>171.25</ele>
        <time>2018-08-16T11:01:08Z</time>
      </trkpt>
      <trkpt lat="49.63542" lon="4.97751">
        <ele>171.25</ele>
        <time>2018-08-16T11:01:23Z</time>
      </trkpt>
      <trkpt lat="49.63544" lon="4.97747">
        <ele>171.73</ele>
        <time>2018-08-16T11:01:27Z</time>
      </trkpt>
      <trkpt lat="49.63545" lon="4.97743">
        <ele>171.73</ele>
        <time>2018-08-16T11:01:29Z</time>
      </trkpt>
      <trkpt lat="49.63553" lon="4.97716">
        <ele>178.46</ele>
        <time>2018-08-16T11:01:44Z</time>
      </trkpt>
      <trkpt lat="49.63563" lon="4.97692">
        <ele>182.31</ele>
        <time>2018-08-16T11:01:59Z</time>
      </trkpt>
      <trkpt lat="49.63566" lon="4.97685">
        <ele>184.23</ele>
        <time>2018-08-16T11:02:07Z</time>
      </trkpt>
      <trkpt lat="49.63569" lon="4.97677">
        <ele>185.19</ele>
        <time>2018-08-16T11:02:13Z</time>
      </trkpt>
      <trkpt lat="49.6358" lon="4.97669">
        <ele>185.67</ele>
        <time>2018-08-16T11:02:26Z</time>
      </trkpt>
      <trkpt lat="49.63596" lon="4.97663">
        <ele>180.38</ele>
        <time>2018-08-16T11:02:41Z</time>
      </trkpt>
      <trkpt lat="49.63613" lon="4.97672">
        <ele>177.5</ele>
        <time>2018-08-16T11:02:54Z</time>
      </trkpt>
      <trkpt lat="49.63629" lon="4.97682">
        <ele>175.1</ele>
        <time>2018-08-16T11:03:07Z</time>
      </trkpt>
      <trkpt lat="49.63644" lon="4.97694">
        <ele>171.25</ele>
        <time>2018-08-16T11:03:20Z</time>
      </trkpt>
      <trkpt lat="49.63662" lon="4.97707">
        <ele>166.93</ele>
        <time>2018-08-16T11:03:34Z</time>
      </trkpt>
      <trkpt lat="49.6368" lon="4.97722">
        <ele>164.52</ele>
        <time>2018-08-16T11:03:50Z</time>
      </trkpt>
      <trkpt lat="49.6369" lon="4.9773">
        <ele>165</ele>
        <time>2018-08-16T11:04:00Z</time>
      </trkpt>
      <trkpt lat="49.63703" lon="4.97742">
        <ele>163.56</ele>
        <time>2018-08-16T11:04:14Z</time>
      </trkpt>
      <trkpt lat="49.63715" lon="4.97751">
        <ele>161.16</ele>
        <time>2018-08-16T11:04:27Z</time>
      </trkpt>
      <trkpt lat="49.63731" lon="4.97766">
        <ele>161.16</ele>
        <time>2018-08-16T11:04:41Z</time>
      </trkpt>
      <trkpt lat="49.63735" lon="4.97769">
        <ele>161.64</ele>
        <time>2018-08-16T11:04:46Z</time>
      </trkpt>
      <trkpt lat="49.6375" lon="4.97778">
        <ele>163.08</ele>
        <time>2018-08-16T11:05:04Z</time>
      </trkpt>
      <trkpt lat="49.63762" lon="4.97786">
        <ele>161.64</ele>
        <time>2018-08-16T11:05:17Z</time>
      </trkpt>
      <trkpt lat="49.63775" lon="4.97798">
        <ele>163.08</ele>
        <time>2018-08-16T11:05:32Z</time>
      </trkpt>
      <trkpt lat="49.63789" lon="4.97813">
        <ele>160.2</ele>
        <time>2018-08-16T11:05:48Z</time>
      </trkpt>
      <trkpt lat="49.63806" lon="4.97826">
        <ele>162.12</ele>
        <time>2018-08-16T11:06:04Z</time>
      </trkpt>
      <trkpt lat="49.63823" lon="4.97846">
        <ele>161.64</ele>
        <time>2018-08-16T11:06:22Z</time>
      </trkpt>
      <trkpt lat="49.6384" lon="4.97861">
        <ele>160.2</ele>
        <time>2018-08-16T11:06:41Z</time>
      </trkpt>
      <trkpt lat="49.63853" lon="4.97878">
        <ele>158.27</ele>
        <time>2018-08-16T11:06:57Z</time>
      </trkpt>
      <trkpt lat="49.63868" lon="4.97894">
        <ele>159.72</ele>
        <time>2018-08-16T11:07:15Z</time>
      </trkpt>
      <trkpt lat="49.63886" lon="4.97912">
        <ele>163.08</ele>
        <time>2018-08-16T11:07:33Z</time>
      </trkpt>
      <trkpt lat="49.63902" lon="4.97924">
        <ele>166.45</ele>
        <time>2018-08-16T11:07:50Z</time>
      </trkpt>
      <trkpt lat="49.63917" lon="4.97938">
        <ele>171.73</ele>
        <time>2018-08-16T11:08:05Z</time>
      </trkpt>
      <trkpt lat="49.63932" lon="4.97953">
        <ele>174.14</ele>
        <time>2018-08-16T11:08:20Z</time>
      </trkpt>
      <trkpt lat="49.63944" lon="4.97967">
        <ele>171.73</ele>
        <time>2018-08-16T11:08:35Z</time>
      </trkpt>
      <trkpt lat="49.6396" lon="4.97979">
        <ele>171.25</ele>
        <time>2018-08-16T11:08:51Z</time>
      </trkpt>
      <trkpt lat="49.63976" lon="4.97991">
        <ele>171.25</ele>
        <time>2018-08-16T11:09:05Z</time>
      </trkpt>
      <trkpt lat="49.63991" lon="4.98006">
        <ele>168.85</ele>
        <time>2018-08-16T11:09:23Z</time>
      </trkpt>
      <trkpt lat="49.64008" lon="4.98023">
        <ele>167.89</ele>
        <time>2018-08-16T11:09:40Z</time>
      </trkpt>
      <trkpt lat="49.64023" lon="4.98038">
        <ele>166.93</ele>
        <time>2018-08-16T11:09:55Z</time>
      </trkpt>
      <trkpt lat="49.64039" lon="4.98052">
        <ele>167.89</ele>
        <time>2018-08-16T11:10:11Z</time>
      </trkpt>
      <trkpt lat="49.64055" lon="4.98067">
        <ele>168.85</ele>
        <time>2018-08-16T11:10:27Z</time>
      </trkpt>
      <trkpt lat="49.64069" lon="4.98083">
        <ele>168.37</ele>
        <time>2018-08-16T11:10:44Z</time>
      </trkpt>
      <trkpt lat="49.64078" lon="4.98094">
        <ele>166.93</ele>
        <time>2018-08-16T11:10:55Z</time>
      </trkpt>
      <trkpt lat="49.6408" lon="4.98096">
        <ele>167.41</ele>
        <time>2018-08-16T11:10:57Z</time>
      </trkpt>
      <trkpt lat="49.64098" lon="4.98111">
        <ele>167.89</ele>
        <time>2018-08-16T11:11:15Z</time>
      </trkpt>
      <trkpt lat="49.64116" lon="4.98125">
        <ele>168.37</ele>
        <time>2018-08-16T11:11:31Z</time>
      </trkpt>
      <trkpt lat="49.64119" lon="4.98127">
        <ele>167.89</ele>
        <time>2018-08-16T11:11:33Z</time>
      </trkpt>
      <trkpt lat="49.64133" lon="4.98144">
        <ele>165</ele>
        <time>2018-08-16T11:11:50Z</time>
      </trkpt>
      <trkpt lat="49.64149" lon="4.98161">
        <ele>165</ele>
        <time>2018-08-16T11:12:05Z</time>
      </trkpt>
      <trkpt lat="49.64164" lon="4.98173">
        <ele>165</ele>
        <time>2018-08-16T11:12:19Z</time>
      </trkpt>
      <trkpt lat="49.64173" lon="4.98181">
        <ele>165</ele>
        <time>2018-08-16T11:12:29Z</time>
      </trkpt>
      <trkpt lat="49.6418" lon="4.98187">
        <ele>165</ele>
        <time>2018-08-16T11:12:34Z</time>
      </trkpt>
      <trkpt lat="49.64193" lon="4.98197">
        <ele>163.08</ele>
        <time>2018-08-16T11:12:49Z</time>
      </trkpt>
      <trkpt lat="49.64205" lon="4.98207">
        <ele>163.56</ele>
        <time>2018-08-16T11:13:02Z</time>
      </trkpt>
      <trkpt lat="49.64227" lon="4.98225">
        <ele>161.64</ele>
        <time>2018-08-16T11:13:21Z</time>
      </trkpt>
      <trkpt lat="49.64245" lon="4.98244">
        <ele>160.2</ele>
        <time>2018-08-16T11:13:37Z</time>
      </trkpt>
      <trkpt lat="49.64249" lon="4.98247">
        <ele>158.75</ele>
        <time>2018-08-16T11:13:42Z</time>
      </trkpt>
      <trkpt lat="49.64256" lon="4.98253">
        <ele>157.31</ele>
        <time>2018-08-16T11:13:48Z</time>
      </trkpt>
      <trkpt lat="49.6427" lon="4.98267">
        <ele>156.83</ele>
        <time>2018-08-16T11:14:03Z</time>
      </trkpt>
      <trkpt lat="49.64285" lon="4.98281">
        <ele>155.87</ele>
        <time>2018-08-16T11:14:17Z</time>
      </trkpt>
      <trkpt lat="49.64298" lon="4.98294">
        <ele>158.75</ele>
        <time>2018-08-16T11:14:32Z</time>
      </trkpt>
      <trkpt lat="49.64311" lon="4.98303">
        <ele>161.64</ele>
        <time>2018-08-16T11:14:46Z</time>
      </trkpt>
      <trkpt lat="49.64315" lon="4.98308">
        <ele>162.6</ele>
        <time>2018-08-16T11:14:51Z</time>
      </trkpt>
      <trkpt lat="49.64319" lon="4.9831">
        <ele>163.56</ele>
        <time>2018-08-16T11:14:54Z</time>
      </trkpt>
      <trkpt lat="49.64334" lon="4.98321">
        <ele>165.96</ele>
        <time>2018-08-16T11:15:09Z</time>
      </trkpt>
      <trkpt lat="49.64352" lon="4.98334">
        <ele>163.56</ele>
        <time>2018-08-16T11:15:22Z</time>
      </trkpt>
      <trkpt lat="49.64369" lon="4.98349">
        <ele>161.64</ele>
        <time>2018-08-16T11:15:39Z</time>
      </trkpt>
      <trkpt lat="49.64382" lon="4.98358">
        <ele>162.6</ele>
        <time>2018-08-16T11:15:54Z</time>
      </trkpt>
      <trkpt lat="49.64401" lon="4.98373">
        <ele>160.2</ele>
        <time>2018-08-16T11:16:10Z</time>
      </trkpt>
      <trkpt lat="49.64418" lon="4.98384">
        <ele>162.12</ele>
        <time>2018-08-16T11:16:25Z</time>
      </trkpt>
      <trkpt lat="49.64432" lon="4.98391">
        <ele>162.12</ele>
        <time>2018-08-16T11:16:41Z</time>
      </trkpt>
      <trkpt lat="49.64434" lon="4.98392">
        <ele>162.12</ele>
        <time>2018-08-16T11:16:42Z</time>
      </trkpt>
      <trkpt lat="49.64451" lon="4.98402">
        <ele>161.64</ele>
        <time>2018-08-16T11:16:58Z</time>
      </trkpt>
      <trkpt lat="49.64456" lon="4.98406">
        <ele>161.64</ele>
        <time>2018-08-16T11:17:04Z</time>
      </trkpt>
      <trkpt lat="49.64461" lon="4.9841">
        <ele>161.64</ele>
        <time>2018-08-16T11:17:08Z</time>
      </trkpt>
      <trkpt lat="49.64476" lon="4.98418">
        <ele>161.64</ele>
        <time>2018-08-16T11:17:22Z</time>
      </trkpt>
      <trkpt lat="49.64497" lon="4.98432">
        <ele>157.79</ele>
        <time>2018-08-16T11:17:38Z</time>
      </trkpt>
      <trkpt lat="49.64515" lon="4.98442">
        <ele>153.95</ele>
        <time>2018-08-16T11:17:54Z</time>
      </trkpt>
      <trkpt lat="49.64531" lon="4.98451">
        <ele>154.91</ele>
        <time>2018-08-16T11:18:09Z</time>
      </trkpt>
      <trkpt lat="49.6455" lon="4.98462">
        <ele>154.91</ele>
        <time>2018-08-16T11:18:24Z</time>
      </trkpt>
      <trkpt lat="49.64566" lon="4.98471">
        <ele>154.91</ele>
        <time>2018-08-16T11:18:40Z</time>
      </trkpt>
      <trkpt lat="49.64582" lon="4.98478">
        <ele>153.95</ele>
        <time>2018-08-16T11:18:54Z</time>
      </trkpt>
      <trkpt lat="49.64603" lon="4.98489">
        <ele>148.66</ele>
        <time>2018-08-16T11:19:11Z</time>
      </trkpt>
      <trkpt lat="49.64619" lon="4.98499">
        <ele>150.1</ele>
        <time>2018-08-16T11:19:26Z</time>
      </trkpt>
      <trkpt lat="49.64625" lon="4.98503">
        <ele>154.91</ele>
        <time>2018-08-16T11:19:35Z</time>
      </trkpt>
      <trkpt lat="49.64645" lon="4.98513">
        <ele>155.87</ele>
        <time>2018-08-16T11:19:51Z</time>
      </trkpt>
      <trkpt lat="49.64649" lon="4.98516">
        <ele>155.87</ele>
        <time>2018-08-16T11:19:56Z</time>
      </trkpt>
      <trkpt lat="49.64671" lon="4.98527">
        <ele>157.79</ele>
        <time>2018-08-16T11:20:14Z</time>
      </trkpt>
      <trkpt lat="49.64691" lon="4.98539">
        <ele>157.79</ele>
        <time>2018-08-16T11:20:32Z</time>
      </trkpt>
      <trkpt lat="49.64705" lon="4.98549">
        <ele>156.83</ele>
        <time>2018-08-16T11:20:46Z</time>
      </trkpt>
      <trkpt lat="49.64726" lon="4.98562">
        <ele>153.47</ele>
        <time>2018-08-16T11:21:05Z</time>
      </trkpt>
      <trkpt lat="49.64746" lon="4.98572">
        <ele>154.43</ele>
        <time>2018-08-16T11:21:21Z</time>
      </trkpt>
      <trkpt lat="49.64762" lon="4.98582">
        <ele>153.47</ele>
        <time>2018-08-16T11:21:37Z</time>
      </trkpt>
      <trkpt lat="49.64779" lon="4.98587">
        <ele>154.91</ele>
        <time>2018-08-16T11:21:53Z</time>
      </trkpt>
      <trkpt lat="49.64798" lon="4.98598">
        <ele>156.35</ele>
        <time>2018-08-16T11:22:09Z</time>
      </trkpt>
      <trkpt lat="49.64814" lon="4.98607">
        <ele>157.79</ele>
        <time>2018-08-16T11:22:24Z</time>
      </trkpt>
      <trkpt lat="49.64829" lon="4.98615">
        <ele>157.79</ele>
        <time>2018-08-16T11:22:39Z</time>
      </trkpt>
      <trkpt lat="49.64834" lon="4.98618">
        <ele>158.27</ele>
        <time>2018-08-16T11:22:44Z</time>
      </trkpt>
      <trkpt lat="49.6484" lon="4.98622">
        <ele>158.27</ele>
        <time>2018-08-16T11:22:48Z</time>
      </trkpt>
      <trkpt lat="49.64855" lon="4.98631">
        <ele>159.24</ele>
        <time>2018-08-16T11:23:03Z</time>
      </trkpt>
      <trkpt lat="49.64875" lon="4.98647">
        <ele>158.75</ele>
        <time>2018-08-16T11:23:20Z</time>
      </trkpt>
      <trkpt lat="49.64895" lon="4.98661">
        <ele>160.2</ele>
        <time>2018-08-16T11:23:40Z</time>
      </trkpt>
      <trkpt lat="49.64914" lon="4.98673">
        <ele>158.75</ele>
        <time>2018-08-16T11:23:58Z</time>
      </trkpt>
      <trkpt lat="49.64934" lon="4.9868">
        <ele>157.79</ele>
        <time>2018-08-16T11:24:14Z</time>
      </trkpt>
      <trkpt lat="49.6495" lon="4.98692">
        <ele>157.31</ele>
        <time>2018-08-16T11:24:30Z</time>
      </trkpt>
      <trkpt lat="49.64952" lon="4.98695">
        <ele>156.35</ele>
        <time>2018-08-16T11:24:33Z</time>
      </trkpt>
      <trkpt lat="49.64959" lon="4.98703">
        <ele>156.35</ele>
        <time>2018-08-16T11:24:39Z</time>
      </trkpt>
      <trkpt lat="49.64965" lon="4.98708">
        <ele>156.83</ele>
        <time>2018-08-16T11:24:44Z</time>
      </trkpt>
      <trkpt lat="49.6498" lon="4.98719">
        <ele>155.39</ele>
        <time>2018-08-16T11:25:00Z</time>
      </trkpt>
      <trkpt lat="49.64984" lon="4.98724">
        <ele>155.39</ele>
        <time>2018-08-16T11:25:04Z</time>
      </trkpt>
      <trkpt lat="49.65005" lon="4.98743">
        <ele>155.39</ele>
        <time>2018-08-16T11:25:22Z</time>
      </trkpt>
      <trkpt lat="49.65025" lon="4.98764">
        <ele>155.39</ele>
        <time>2018-08-16T11:25:42Z</time>
      </trkpt>
      <trkpt lat="49.6504" lon="4.98775">
        <ele>154.43</ele>
        <time>2018-08-16T11:25:57Z</time>
      </trkpt>
      <trkpt lat="49.6506" lon="4.98796">
        <ele>153.47</ele>
        <time>2018-08-16T11:26:15Z</time>
      </trkpt>
      <trkpt lat="49.65078" lon="4.98815">
        <ele>152.51</ele>
        <time>2018-08-16T11:26:33Z</time>
      </trkpt>
      <trkpt lat="49.65095" lon="4.98826">
        <ele>153.47</ele>
        <time>2018-08-16T11:26:49Z</time>
      </trkpt>
      <trkpt lat="49.65112" lon="4.98845">
        <ele>154.43</ele>
        <time>2018-08-16T11:27:06Z</time>
      </trkpt>
      <trkpt lat="49.6512" lon="4.98851">
        <ele>154.43</ele>
        <time>2018-08-16T11:27:15Z</time>
      </trkpt>
      <trkpt lat="49.65122" lon="4.98855">
        <ele>153.95</ele>
        <time>2018-08-16T11:27:18Z</time>
      </trkpt>
      <trkpt lat="49.65134" lon="4.98869">
        <ele>154.91</ele>
        <time>2018-08-16T11:27:29Z</time>
      </trkpt>
      <trkpt lat="49.65144" lon="4.98875">
        <ele>155.39</ele>
        <time>2018-08-16T11:27:39Z</time>
      </trkpt>
      <trkpt lat="49.65159" lon="4.98892">
        <ele>156.35</ele>
        <time>2018-08-16T11:27:54Z</time>
      </trkpt>
      <trkpt lat="49.65172" lon="4.98904">
        <ele>155.39</ele>
        <time>2018-08-16T11:28:09Z</time>
      </trkpt>
      <trkpt lat="49.6518" lon="4.98912">
        <ele>154.91</ele>
        <time>2018-08-16T11:28:16Z</time>
      </trkpt>
      <trkpt lat="49.65197" lon="4.98929">
        <ele>152.51</ele>
        <time>2018-08-16T11:28:33Z</time>
      </trkpt>
      <trkpt lat="49.65215" lon="4.98943">
        <ele>152.03</ele>
        <time>2018-08-16T11:28:50Z</time>
      </trkpt>
      <trkpt lat="49.65232" lon="4.9896">
        <ele>148.66</ele>
        <time>2018-08-16T11:29:06Z</time>
      </trkpt>
      <trkpt lat="49.65236" lon="4.98964">
        <ele>148.18</ele>
        <time>2018-08-16T11:29:11Z</time>
      </trkpt>
      <trkpt lat="49.65245" lon="4.98973">
        <ele>147.7</ele>
        <time>2018-08-16T11:29:19Z</time>
      </trkpt>
      <trkpt lat="49.65257" lon="4.98984">
        <ele>146.26</ele>
        <time>2018-08-16T11:29:33Z</time>
      </trkpt>
      <trkpt lat="49.65276" lon="4.98999">
        <ele>145.78</ele>
        <time>2018-08-16T11:29:47Z</time>
      </trkpt>
      <trkpt lat="49.65292" lon="4.99009">
        <ele>148.18</ele>
        <time>2018-08-16T11:30:02Z</time>
      </trkpt>
      <trkpt lat="49.65308" lon="4.99027">
        <ele>150.1</ele>
        <time>2018-08-16T11:30:17Z</time>
      </trkpt>
      <trkpt lat="49.65321" lon="4.99042">
        <ele>146.74</ele>
        <time>2018-08-16T11:30:32Z</time>
      </trkpt>
      <trkpt lat="49.6533" lon="4.99066">
        <ele>145.3</ele>
        <time>2018-08-16T11:30:46Z</time>
      </trkpt>
      <trkpt lat="49.65337" lon="4.9909">
        <ele>145.78</ele>
        <time>2018-08-16T11:31:01Z</time>
      </trkpt>
      <trkpt lat="49.65342" lon="4.99105">
        <ele>146.74</ele>
        <time>2018-08-16T11:31:09Z</time>
      </trkpt>
      <trkpt lat="49.6535" lon="4.99121">
        <ele>144.82</ele>
        <time>2018-08-16T11:31:23Z</time>
      </trkpt>
      <trkpt lat="49.65363" lon="4.99145">
        <ele>143.85</ele>
        <time>2018-08-16T11:31:38Z</time>
      </trkpt>
      <trkpt lat="49.65369" lon="4.99154">
        <ele>143.37</ele>
        <time>2018-08-16T11:31:46Z</time>
      </trkpt>
      <trkpt lat="49.65373" lon="4.9916">
        <ele>142.89</ele>
        <time>2018-08-16T11:31:50Z</time>
      </trkpt>
      <trkpt lat="49.65379" lon="4.99169">
        <ele>143.85</ele>
        <time>2018-08-16T11:31:56Z</time>
      </trkpt>
      <trkpt lat="49.6538" lon="4.99169">
        <ele>143.85</ele>
        <time>2018-08-16T11:31:58Z</time>
      </trkpt>
      <trkpt lat="49.65388" lon="4.99161">
        <ele>143.37</ele>
        <time>2018-08-16T11:32:08Z</time>
      </trkpt>
      <trkpt lat="49.65395" lon="4.99171">
        <ele>138.57</ele>
        <time>2018-08-16T11:32:17Z</time>
      </trkpt>
      <trkpt lat="49.65394" lon="4.99175">
        <ele>137.13</ele>
        <time>2018-08-16T11:32:21Z</time>
      </trkpt>
      <trkpt lat="49.654" lon="4.99192">
        <ele>138.09</ele>
        <time>2018-08-16T11:32:35Z</time>
      </trkpt>
      <trkpt lat="49.65401" lon="4.99194">
        <ele>138.09</ele>
        <time>2018-08-16T11:32:37Z</time>
      </trkpt>
      <trkpt lat="49.65404" lon="4.99197">
        <ele>138.57</ele>
        <time>2018-08-16T11:32:40Z</time>
      </trkpt>
      <trkpt lat="49.65418" lon="4.99223">
        <ele>140.97</ele>
        <time>2018-08-16T11:32:56Z</time>
      </trkpt>
      <trkpt lat="49.65427" lon="4.99238">
        <ele>142.89</ele>
        <time>2018-08-16T11:33:08Z</time>
      </trkpt>
      <trkpt lat="49.65441" lon="4.99259">
        <ele>144.34</ele>
        <time>2018-08-16T11:33:23Z</time>
      </trkpt>
      <trkpt lat="49.65452" lon="4.99278">
        <ele>142.41</ele>
        <time>2018-08-16T11:33:38Z</time>
      </trkpt>
      <trkpt lat="49.65465" lon="4.99284">
        <ele>144.34</ele>
        <time>2018-08-16T11:33:51Z</time>
      </trkpt>
      <trkpt lat="49.65468" lon="4.99278">
        <ele>145.78</ele>
        <time>2018-08-16T11:33:57Z</time>
      </trkpt>
      <trkpt lat="49.65471" lon="4.99268">
        <ele>148.18</ele>
        <time>2018-08-16T11:34:06Z</time>
      </trkpt>
      <trkpt lat="49.65473" lon="4.99264">
        <ele>148.66</ele>
        <time>2018-08-16T11:34:09Z</time>
      </trkpt>
      <trkpt lat="49.65478" lon="4.99239">
        <ele>152.51</ele>
        <time>2018-08-16T11:34:24Z</time>
      </trkpt>
      <trkpt lat="49.65486" lon="4.99211">
        <ele>155.87</ele>
        <time>2018-08-16T11:34:39Z</time>
      </trkpt>
      <trkpt lat="49.65488" lon="4.992">
        <ele>156.83</ele>
        <time>2018-08-16T11:34:47Z</time>
      </trkpt>
      <trkpt lat="49.65497" lon="4.99197">
        <ele>158.27</ele>
        <time>2018-08-16T11:34:53Z</time>
      </trkpt>
      <trkpt lat="49.65513" lon="4.99205">
        <ele>160.2</ele>
        <time>2018-08-16T11:35:07Z</time>
      </trkpt>
      <trkpt lat="49.65529" lon="4.99214">
        <ele>155.87</ele>
        <time>2018-08-16T11:35:20Z</time>
      </trkpt>
      <trkpt lat="49.65543" lon="4.99217">
        <ele>154.43</ele>
        <time>2018-08-16T11:35:32Z</time>
      </trkpt>
      <trkpt lat="49.65562" lon="4.99237">
        <ele>150.58</ele>
        <time>2018-08-16T11:35:48Z</time>
      </trkpt>
      <trkpt lat="49.65564" lon="4.99243">
        <ele>150.1</ele>
        <time>2018-08-16T11:35:55Z</time>
      </trkpt>
      <trkpt lat="49.65551" lon="4.9927">
        <ele>149.14</ele>
        <time>2018-08-16T11:36:11Z</time>
      </trkpt>
      <trkpt lat="49.65537" lon="4.99291">
        <ele>151.06</ele>
        <time>2018-08-16T11:36:27Z</time>
      </trkpt>
      <trkpt lat="49.65526" lon="4.9931">
        <ele>152.51</ele>
        <time>2018-08-16T11:36:43Z</time>
      </trkpt>
      <trkpt lat="49.65514" lon="4.99332">
        <ele>150.58</ele>
        <time>2018-08-16T11:36:58Z</time>
      </trkpt>
      <trkpt lat="49.65501" lon="4.99355">
        <ele>149.62</ele>
        <time>2018-08-16T11:37:16Z</time>
      </trkpt>
      <trkpt lat="49.65489" lon="4.99376">
        <ele>150.1</ele>
        <time>2018-08-16T11:37:32Z</time>
      </trkpt>
      <trkpt lat="49.65478" lon="4.99399">
        <ele>150.58</ele>
        <time>2018-08-16T11:37:47Z</time>
      </trkpt>
      <trkpt lat="49.65462" lon="4.9942">
        <ele>152.03</ele>
        <time>2018-08-16T11:38:02Z</time>
      </trkpt>
      <trkpt lat="49.65448" lon="4.99441">
        <ele>153.47</ele>
        <time>2018-08-16T11:38:19Z</time>
      </trkpt>
      <trkpt lat="49.65436" lon="4.9946">
        <ele>153.95</ele>
        <time>2018-08-16T11:38:35Z</time>
      </trkpt>
      <trkpt lat="49.6542" lon="4.99486">
        <ele>154.91</ele>
        <time>2018-08-16T11:38:52Z</time>
      </trkpt>
      <trkpt lat="49.65412" lon="4.99502">
        <ele>155.39</ele>
        <time>2018-08-16T11:39:05Z</time>
      </trkpt>
      <trkpt lat="49.65406" lon="4.99516">
        <ele>156.83</ele>
        <time>2018-08-16T11:39:15Z</time>
      </trkpt>
      <trkpt lat="49.65392" lon="4.99541">
        <ele>154.43</ele>
        <time>2018-08-16T11:39:34Z</time>
      </trkpt>
      <trkpt lat="49.65384" lon="4.99564">
        <ele>151.06</ele>
        <time>2018-08-16T11:39:48Z</time>
      </trkpt>
      <trkpt lat="49.65378" lon="4.99578">
        <ele>147.7</ele>
        <time>2018-08-16T11:40:00Z</time>
      </trkpt>
      <trkpt lat="49.6537" lon="4.99591">
        <ele>143.85</ele>
        <time>2018-08-16T11:40:13Z</time>
      </trkpt>
      <trkpt lat="49.65361" lon="4.9961">
        <ele>140.97</ele>
        <time>2018-08-16T11:40:27Z</time>
      </trkpt>
      <trkpt lat="49.6535" lon="4.99638">
        <ele>142.89</ele>
        <time>2018-08-16T11:40:42Z</time>
      </trkpt>
      <trkpt lat="49.65337" lon="4.99656">
        <ele>145.3</ele>
        <time>2018-08-16T11:40:54Z</time>
      </trkpt>
      <trkpt lat="49.65324" lon="4.9968">
        <ele>144.82</ele>
        <time>2018-08-16T11:41:10Z</time>
      </trkpt>
      <trkpt lat="49.65318" lon="4.99698">
        <ele>140.97</ele>
        <time>2018-08-16T11:41:25Z</time>
      </trkpt>
      <trkpt lat="49.65307" lon="4.99716">
        <ele>138.57</ele>
        <time>2018-08-16T11:41:37Z</time>
      </trkpt>
      <trkpt lat="49.65298" lon="4.99743">
        <ele>135.2</ele>
        <time>2018-08-16T11:41:53Z</time>
      </trkpt>
      <trkpt lat="49.65292" lon="4.99756">
        <ele>131.84</ele>
        <time>2018-08-16T11:42:08Z</time>
      </trkpt>
      <trkpt lat="49.65284" lon="4.99779">
        <ele>126.55</ele>
        <time>2018-08-16T11:42:22Z</time>
      </trkpt>
      <trkpt lat="49.65277" lon="4.99804">
        <ele>124.63</ele>
        <time>2018-08-16T11:42:37Z</time>
      </trkpt>
      <trkpt lat="49.65273" lon="4.99827">
        <ele>129.92</ele>
        <time>2018-08-16T11:42:51Z</time>
      </trkpt>
      <trkpt lat="49.65265" lon="4.99837">
        <ele>128.47</ele>
        <time>2018-08-16T11:43:03Z</time>
      </trkpt>
      <trkpt lat="49.65245" lon="4.99861">
        <ele>138.09</ele>
        <time>2018-08-16T11:43:18Z</time>
      </trkpt>
      <trkpt lat="49.65232" lon="4.99876">
        <ele>147.22</ele>
        <time>2018-08-16T11:43:30Z</time>
      </trkpt>
      <trkpt lat="49.65223" lon="4.99893">
        <ele>153.95</ele>
        <time>2018-08-16T11:43:43Z</time>
      </trkpt>
      <trkpt lat="49.65227" lon="4.99903">
        <ele>154.43</ele>
        <time>2018-08-16T11:43:53Z</time>
      </trkpt>
      <trkpt lat="49.65243" lon="4.99919">
        <ele>154.43</ele>
        <time>2018-08-16T11:44:09Z</time>
      </trkpt>
      <trkpt lat="49.65256" lon="4.99934">
        <ele>153.95</ele>
        <time>2018-08-16T11:44:23Z</time>
      </trkpt>
      <trkpt lat="49.65269" lon="4.99935">
        <ele>152.03</ele>
        <time>2018-08-16T11:44:35Z</time>
      </trkpt>
      <trkpt lat="49.65278" lon="4.99936">
        <ele>149.62</ele>
        <time>2018-08-16T11:44:40Z</time>
      </trkpt>
      <trkpt lat="49.65287" lon="4.9996">
        <ele>145.3</ele>
        <time>2018-08-16T11:44:55Z</time>
      </trkpt>
      <trkpt lat="49.65289" lon="4.99967">
        <ele>144.82</ele>
        <time>2018-08-16T11:44:58Z</time>
      </trkpt>
      <trkpt lat="49.65293" lon="4.9998">
        <ele>143.37</ele>
        <time>2018-08-16T11:45:04Z</time>
      </trkpt>
      <trkpt lat="49.65304" lon="4.99999">
        <ele>144.34</ele>
        <time>2018-08-16T11:45:19Z</time>
      </trkpt>
      <trkpt lat="49.65307" lon="5.00001">
        <ele>144.82</ele>
        <time>2018-08-16T11:45:24Z</time>
      </trkpt>
      <trkpt lat="49.65313" lon="5.00007">
        <ele>143.85</ele>
        <time>2018-08-16T11:45:28Z</time>
      </trkpt>
      <trkpt lat="49.65331" lon="5.00031">
        <ele>141.45</ele>
        <time>2018-08-16T11:45:44Z</time>
      </trkpt>
      <trkpt lat="49.65335" lon="5.00034">
        <ele>140.49</ele>
        <time>2018-08-16T11:45:49Z</time>
      </trkpt>
      <trkpt lat="49.65342" lon="5.00032">
        <ele>140.97</ele>
        <time>2018-08-16T11:45:54Z</time>
      </trkpt>
      <trkpt lat="49.65346" lon="5.0004">
        <ele>141.93</ele>
        <time>2018-08-16T11:45:58Z</time>
      </trkpt>
      <trkpt lat="49.65363" lon="5.00055">
        <ele>140.97</ele>
        <time>2018-08-16T11:46:15Z</time>
      </trkpt>
      <trkpt lat="49.65376" lon="5.00073">
        <ele>143.37</ele>
        <time>2018-08-16T11:46:29Z</time>
      </trkpt>
      <trkpt lat="49.65389" lon="5.00087">
        <ele>141.45</ele>
        <time>2018-08-16T11:46:43Z</time>
      </trkpt>
      <trkpt lat="49.6539" lon="5.00089">
        <ele>140.97</ele>
        <time>2018-08-16T11:46:45Z</time>
      </trkpt>
      <trkpt lat="49.65406" lon="5.00113">
        <ele>139.05</ele>
        <time>2018-08-16T11:47:01Z</time>
      </trkpt>
      <trkpt lat="49.65414" lon="5.00122">
        <ele>140.49</ele>
        <time>2018-08-16T11:47:13Z</time>
      </trkpt>
      <trkpt lat="49.65419" lon="5.00131">
        <ele>141.93</ele>
        <time>2018-08-16T11:47:18Z</time>
      </trkpt>
      <trkpt lat="49.65429" lon="5.00147">
        <ele>141.45</ele>
        <time>2018-08-16T11:47:29Z</time>
      </trkpt>
      <trkpt lat="49.65428" lon="5.00169">
        <ele>142.41</ele>
        <time>2018-08-16T11:47:44Z</time>
      </trkpt>
      <trkpt lat="49.65432" lon="5.00176">
        <ele>141.93</ele>
        <time>2018-08-16T11:47:51Z</time>
      </trkpt>
      <trkpt lat="49.65435" lon="5.00185">
        <ele>142.41</ele>
        <time>2018-08-16T11:47:56Z</time>
      </trkpt>
      <trkpt lat="49.65447" lon="5.0021">
        <ele>144.82</ele>
        <time>2018-08-16T11:48:13Z</time>
      </trkpt>
      <trkpt lat="49.65459" lon="5.00237">
        <ele>147.22</ele>
        <time>2018-08-16T11:48:29Z</time>
      </trkpt>
      <trkpt lat="49.65467" lon="5.0025">
        <ele>148.66</ele>
        <time>2018-08-16T11:48:41Z</time>
      </trkpt>
      <trkpt lat="49.6548" lon="5.00282">
        <ele>149.62</ele>
        <time>2018-08-16T11:48:59Z</time>
      </trkpt>
      <trkpt lat="49.6549" lon="5.00308">
        <ele>152.03</ele>
        <time>2018-08-16T11:49:17Z</time>
      </trkpt>
      <trkpt lat="49.65501" lon="5.0033">
        <ele>153.95</ele>
        <time>2018-08-16T11:49:34Z</time>
      </trkpt>
      <trkpt lat="49.65502" lon="5.00332">
        <ele>154.43</ele>
        <time>2018-08-16T11:49:36Z</time>
      </trkpt>
      <trkpt lat="49.65516" lon="5.00359">
        <ele>155.39</ele>
        <time>2018-08-16T11:49:53Z</time>
      </trkpt>
      <trkpt lat="49.65527" lon="5.00388">
        <ele>154.91</ele>
        <time>2018-08-16T11:50:10Z</time>
      </trkpt>
      <trkpt lat="49.65539" lon="5.00412">
        <ele>153.95</ele>
        <time>2018-08-16T11:50:28Z</time>
      </trkpt>
      <trkpt lat="49.65553" lon="5.0044">
        <ele>154.43</ele>
        <time>2018-08-16T11:50:46Z</time>
      </trkpt>
      <trkpt lat="49.65567" lon="5.00471">
        <ele>154.91</ele>
        <time>2018-08-16T11:51:05Z</time>
      </trkpt>
      <trkpt lat="49.65578" lon="5.00494">
        <ele>153.95</ele>
        <time>2018-08-16T11:51:22Z</time>
      </trkpt>
      <trkpt lat="49.65588" lon="5.00519">
        <ele>152.51</ele>
        <time>2018-08-16T11:51:37Z</time>
      </trkpt>
      <trkpt lat="49.65599" lon="5.00542">
        <ele>152.03</ele>
        <time>2018-08-16T11:51:54Z</time>
      </trkpt>
      <trkpt lat="49.6561" lon="5.00566">
        <ele>152.99</ele>
        <time>2018-08-16T11:52:09Z</time>
      </trkpt>
      <trkpt lat="49.6562" lon="5.00591">
        <ele>155.39</ele>
        <time>2018-08-16T11:52:25Z</time>
      </trkpt>
      <trkpt lat="49.65629" lon="5.00614">
        <ele>154.91</ele>
        <time>2018-08-16T11:52:40Z</time>
      </trkpt>
      <trkpt lat="49.6563" lon="5.00619">
        <ele>154.91</ele>
        <time>2018-08-16T11:52:43Z</time>
      </trkpt>
      <trkpt lat="49.65638" lon="5.00652">
        <ele>154.43</ele>
        <time>2018-08-16T11:53:00Z</time>
      </trkpt>
      <trkpt lat="49.65639" lon="5.00663">
        <ele>153.47</ele>
        <time>2018-08-16T11:53:08Z</time>
      </trkpt>
      <trkpt lat="49.65645" lon="5.00703">
        <ele>153.47</ele>
        <time>2018-08-16T11:53:28Z</time>
      </trkpt>
      <trkpt lat="49.65648" lon="5.00739">
        <ele>153.47</ele>
        <time>2018-08-16T11:53:47Z</time>
      </trkpt>
      <trkpt lat="49.6565" lon="5.00752">
        <ele>152.51</ele>
        <time>2018-08-16T11:53:57Z</time>
      </trkpt>
      <trkpt lat="49.65654" lon="5.00783">
        <ele>152.51</ele>
        <time>2018-08-16T11:54:12Z</time>
      </trkpt>
      <trkpt lat="49.65658" lon="5.00814">
        <ele>152.99</ele>
        <time>2018-08-16T11:54:29Z</time>
      </trkpt>
      <trkpt lat="49.65662" lon="5.0084">
        <ele>152.03</ele>
        <time>2018-08-16T11:54:45Z</time>
      </trkpt>
      <trkpt lat="49.65666" lon="5.00866">
        <ele>151.06</ele>
        <time>2018-08-16T11:55:00Z</time>
      </trkpt>
      <trkpt lat="49.65669" lon="5.00899">
        <ele>151.54</ele>
        <time>2018-08-16T11:55:17Z</time>
      </trkpt>
      <trkpt lat="49.65672" lon="5.00935">
        <ele>150.58</ele>
        <time>2018-08-16T11:55:36Z</time>
      </trkpt>
      <trkpt lat="49.65675" lon="5.00961">
        <ele>149.62</ele>
        <time>2018-08-16T11:55:52Z</time>
      </trkpt>
      <trkpt lat="49.65679" lon="5.00987">
        <ele>149.14</ele>
        <time>2018-08-16T11:56:07Z</time>
      </trkpt>
      <trkpt lat="49.6568" lon="5.01019">
        <ele>149.62</ele>
        <time>2018-08-16T11:56:23Z</time>
      </trkpt>
      <trkpt lat="49.65683" lon="5.01039">
        <ele>148.66</ele>
        <time>2018-08-16T11:56:36Z</time>
      </trkpt>
      <trkpt lat="49.65683" lon="5.01055">
        <ele>147.7</ele>
        <time>2018-08-16T11:56:47Z</time>
      </trkpt>
      <trkpt lat="49.65684" lon="5.0108">
        <ele>150.58</ele>
        <time>2018-08-16T11:57:03Z</time>
      </trkpt>
      <trkpt lat="49.65687" lon="5.01102">
        <ele>149.14</ele>
        <time>2018-08-16T11:57:17Z</time>
      </trkpt>
      <trkpt lat="49.65687" lon="5.0113">
        <ele>148.18</ele>
        <time>2018-08-16T11:57:32Z</time>
      </trkpt>
      <trkpt lat="49.65686" lon="5.01134">
        <ele>147.22</ele>
        <time>2018-08-16T11:57:35Z</time>
      </trkpt>
      <trkpt lat="49.65673" lon="5.01156">
        <ele>146.74</ele>
        <time>2018-08-16T11:57:50Z</time>
      </trkpt>
      <trkpt lat="49.65662" lon="5.01173">
        <ele>146.26</ele>
        <time>2018-08-16T11:58:03Z</time>
      </trkpt>
      <trkpt lat="49.65655" lon="5.01187">
        <ele>148.18</ele>
        <time>2018-08-16T11:58:15Z</time>
      </trkpt>
      <trkpt lat="49.65643" lon="5.01204">
        <ele>150.58</ele>
        <time>2018-08-16T11:58:27Z</time>
      </trkpt>
      <trkpt lat="49.6563" lon="5.01221">
        <ele>152.03</ele>
        <time>2018-08-16T11:58:41Z</time>
      </trkpt>
      <trkpt lat="49.65619" lon="5.01237">
        <ele>152.03</ele>
        <time>2018-08-16T11:58:56Z</time>
      </trkpt>
      <trkpt lat="49.65611" lon="5.01255">
        <ele>152.51</ele>
        <time>2018-08-16T11:59:09Z</time>
      </trkpt>
      <trkpt lat="49.65611" lon="5.01257">
        <ele>152.51</ele>
        <time>2018-08-16T11:59:10Z</time>
      </trkpt>
      <trkpt lat="49.65606" lon="5.01266">
        <ele>152.03</ele>
        <time>2018-08-16T11:59:15Z</time>
      </trkpt>
      <trkpt lat="49.65595" lon="5.01287">
        <ele>152.03</ele>
        <time>2018-08-16T11:59:30Z</time>
      </trkpt>
      <trkpt lat="49.65581" lon="5.0131">
        <ele>152.99</ele>
        <time>2018-08-16T11:59:45Z</time>
      </trkpt>
      <trkpt lat="49.65569" lon="5.0133">
        <ele>152.03</ele>
        <time>2018-08-16T12:00:00Z</time>
      </trkpt>
      <trkpt lat="49.65558" lon="5.01345">
        <ele>153.95</ele>
        <time>2018-08-16T12:00:14Z</time>
      </trkpt>
      <trkpt lat="49.65547" lon="5.01362">
        <ele>154.43</ele>
        <time>2018-08-16T12:00:27Z</time>
      </trkpt>
      <trkpt lat="49.65533" lon="5.01381">
        <ele>153.95</ele>
        <time>2018-08-16T12:00:42Z</time>
      </trkpt>
      <trkpt lat="49.6553" lon="5.01389">
        <ele>152.99</ele>
        <time>2018-08-16T12:00:50Z</time>
      </trkpt>
      <trkpt lat="49.65518" lon="5.01409">
        <ele>153.47</ele>
        <time>2018-08-16T12:01:04Z</time>
      </trkpt>
      <trkpt lat="49.65506" lon="5.01429">
        <ele>153.47</ele>
        <time>2018-08-16T12:01:18Z</time>
      </trkpt>
      <trkpt lat="49.65501" lon="5.01437">
        <ele>153.47</ele>
        <time>2018-08-16T12:01:26Z</time>
      </trkpt>
      <trkpt lat="49.65497" lon="5.01446">
        <ele>153.47</ele>
        <time>2018-08-16T12:01:31Z</time>
      </trkpt>
      <trkpt lat="49.65488" lon="5.01463">
        <ele>153.47</ele>
        <time>2018-08-16T12:01:44Z</time>
      </trkpt>
      <trkpt lat="49.65474" lon="5.01486">
        <ele>153.47</ele>
        <time>2018-08-16T12:01:59Z</time>
      </trkpt>
      <trkpt lat="49.65468" lon="5.01495">
        <ele>152.99</ele>
        <time>2018-08-16T12:02:08Z</time>
      </trkpt>
      <trkpt lat="49.65456" lon="5.01511">
        <ele>154.43</ele>
        <time>2018-08-16T12:02:21Z</time>
      </trkpt>
      <trkpt lat="49.6545" lon="5.01525">
        <ele>154.43</ele>
        <time>2018-08-16T12:02:32Z</time>
      </trkpt>
      <trkpt lat="49.65445" lon="5.0153">
        <ele>153.95</ele>
        <time>2018-08-16T12:02:36Z</time>
      </trkpt>
      <trkpt lat="49.65433" lon="5.01552">
        <ele>152.99</ele>
        <time>2018-08-16T12:02:52Z</time>
      </trkpt>
      <trkpt lat="49.6542" lon="5.01568">
        <ele>153.47</ele>
        <time>2018-08-16T12:03:04Z</time>
      </trkpt>
      <trkpt lat="49.6541" lon="5.01589">
        <ele>151.54</ele>
        <time>2018-08-16T12:03:19Z</time>
      </trkpt>
      <trkpt lat="49.65408" lon="5.0159">
        <ele>151.54</ele>
        <time>2018-08-16T12:03:20Z</time>
      </trkpt>
      <trkpt lat="49.65399" lon="5.01608">
        <ele>151.06</ele>
        <time>2018-08-16T12:03:34Z</time>
      </trkpt>
      <trkpt lat="49.65395" lon="5.01615">
        <ele>151.06</ele>
        <time>2018-08-16T12:03:38Z</time>
      </trkpt>
      <trkpt lat="49.65387" lon="5.01633">
        <ele>150.1</ele>
        <time>2018-08-16T12:03:52Z</time>
      </trkpt>
      <trkpt lat="49.65375" lon="5.01655">
        <ele>148.66</ele>
        <time>2018-08-16T12:04:06Z</time>
      </trkpt>
      <trkpt lat="49.65361" lon="5.01679">
        <ele>150.1</ele>
        <time>2018-08-16T12:04:22Z</time>
      </trkpt>
      <trkpt lat="49.6535" lon="5.01696">
        <ele>150.58</ele>
        <time>2018-08-16T12:04:37Z</time>
      </trkpt>
      <trkpt lat="49.65341" lon="5.01712">
        <ele>150.58</ele>
        <time>2018-08-16T12:04:50Z</time>
      </trkpt>
      <trkpt lat="49.65336" lon="5.01724">
        <ele>150.58</ele>
        <time>2018-08-16T12:04:57Z</time>
      </trkpt>
      <trkpt lat="49.65326" lon="5.01741">
        <ele>152.51</ele>
        <time>2018-08-16T12:05:12Z</time>
      </trkpt>
      <trkpt lat="49.65324" lon="5.01758">
        <ele>154.43</ele>
        <time>2018-08-16T12:05:26Z</time>
      </trkpt>
      <trkpt lat="49.65324" lon="5.01757">
        <ele>154.43</ele>
        <time>2018-08-16T12:05:44Z</time>
      </trkpt>
      <trkpt lat="49.65325" lon="5.01757">
        <ele>153.95</ele>
        <time>2018-08-16T12:06:21Z</time>
      </trkpt>
      <trkpt lat="49.65324" lon="5.01756">
        <ele>154.43</ele>
        <time>2018-08-16T12:06:39Z</time>
      </trkpt>
      <trkpt lat="49.65324" lon="5.01756">
        <ele>153.95</ele>
        <time>2018-08-16T12:07:01Z</time>
      </trkpt>
      <trkpt lat="49.65325" lon="5.01756">
        <ele>153.95</ele>
        <time>2018-08-16T12:07:24Z</time>
      </trkpt>
      <trkpt lat="49.65325" lon="5.01757">
        <ele>152.51</ele>
        <time>2018-08-16T12:07:54Z</time>
      </trkpt>
      <trkpt lat="49.65326" lon="5.01757">
        <ele>152.99</ele>
        <time>2018-08-16T12:08:19Z</time>
      </trkpt>
      <trkpt lat="49.65326" lon="5.01757">
        <ele>152.99</ele>
        <time>2018-08-16T12:08:40Z</time>
      </trkpt>
      <trkpt lat="49.65325" lon="5.01757">
        <ele>152.99</ele>
        <time>2018-08-16T12:09:03Z</time>
      </trkpt>
      <trkpt lat="49.65325" lon="5.01756">
        <ele>152.99</ele>
        <time>2018-08-16T12:09:22Z</time>
      </trkpt>
      <trkpt lat="49.65325" lon="5.01756">
        <ele>152.51</ele>
        <time>2018-08-16T12:09:35Z</time>
      </trkpt>
      <trkpt lat="49.65324" lon="5.01757">
        <ele>152.51</ele>
        <time>2018-08-16T12:09:55Z</time>
      </trkpt>
      <trkpt lat="49.65324" lon="5.01757">
        <ele>152.03</ele>
        <time>2018-08-16T12:10:11Z</time>
      </trkpt>
      <trkpt lat="49.65321" lon="5.01756">
        <ele>152.03</ele>
        <time>2018-08-16T12:10:24Z</time>
      </trkpt>
      <trkpt lat="49.65315" lon="5.01765">
        <ele>151.54</ele>
        <time>2018-08-16T12:10:36Z</time>
      </trkpt>
      <trkpt lat="49.65305" lon="5.01774">
        <ele>151.54</ele>
        <time>2018-08-16T12:10:47Z</time>
      </trkpt>
      <trkpt lat="49.653" lon="5.01781">
        <ele>151.54</ele>
        <time>2018-08-16T12:10:57Z</time>
      </trkpt>
      <trkpt lat="49.65299" lon="5.01781">
        <ele>151.54</ele>
        <time>2018-08-16T12:11:08Z</time>
      </trkpt>
      <trkpt lat="49.65307" lon="5.01774">
        <ele>151.54</ele>
        <time>2018-08-16T12:11:20Z</time>
      </trkpt>
      <trkpt lat="49.65308" lon="5.01772">
        <ele>151.54</ele>
        <time>2018-08-16T12:11:22Z</time>
      </trkpt>
      <trkpt lat="49.65316" lon="5.01763">
        <ele>151.54</ele>
        <time>2018-08-16T12:11:33Z</time>
      </trkpt>
      <trkpt lat="49.65322" lon="5.01755">
        <ele>151.06</ele>
        <time>2018-08-16T12:11:42Z</time>
      </trkpt>
      <trkpt lat="49.65327" lon="5.01738">
        <ele>148.66</ele>
        <time>2018-08-16T12:11:55Z</time>
      </trkpt>
      <trkpt lat="49.65335" lon="5.01724">
        <ele>147.22</ele>
        <time>2018-08-16T12:12:07Z</time>
      </trkpt>
      <trkpt lat="49.65342" lon="5.0171">
        <ele>147.7</ele>
        <time>2018-08-16T12:12:23Z</time>
      </trkpt>
      <trkpt lat="49.65352" lon="5.01693">
        <ele>147.7</ele>
        <time>2018-08-16T12:12:35Z</time>
      </trkpt>
      <trkpt lat="49.65362" lon="5.01678">
        <ele>147.22</ele>
        <time>2018-08-16T12:12:47Z</time>
      </trkpt>
      <trkpt lat="49.65371" lon="5.01658">
        <ele>147.22</ele>
        <time>2018-08-16T12:13:00Z</time>
      </trkpt>
      <trkpt lat="49.65383" lon="5.01637">
        <ele>147.22</ele>
        <time>2018-08-16T12:13:15Z</time>
      </trkpt>
      <trkpt lat="49.65384" lon="5.01635">
        <ele>147.7</ele>
        <time>2018-08-16T12:13:18Z</time>
      </trkpt>
      <trkpt lat="49.65394" lon="5.01616">
        <ele>148.18</ele>
        <time>2018-08-16T12:13:32Z</time>
      </trkpt>
      <trkpt lat="49.65405" lon="5.016">
        <ele>148.18</ele>
        <time>2018-08-16T12:13:45Z</time>
      </trkpt>
      <trkpt lat="49.65416" lon="5.01582">
        <ele>149.62</ele>
        <time>2018-08-16T12:13:58Z</time>
      </trkpt>
      <trkpt lat="49.65428" lon="5.01561">
        <ele>149.62</ele>
        <time>2018-08-16T12:14:13Z</time>
      </trkpt>
      <trkpt lat="49.65439" lon="5.01544">
        <ele>149.14</ele>
        <time>2018-08-16T12:14:27Z</time>
      </trkpt>
      <trkpt lat="49.65444" lon="5.01535">
        <ele>148.66</ele>
        <time>2018-08-16T12:14:34Z</time>
      </trkpt>
      <trkpt lat="49.65454" lon="5.01518">
        <ele>149.62</ele>
        <time>2018-08-16T12:14:48Z</time>
      </trkpt>
      <trkpt lat="49.65459" lon="5.01514">
        <ele>148.66</ele>
        <time>2018-08-16T12:14:52Z</time>
      </trkpt>
      <trkpt lat="49.65473" lon="5.01494">
        <ele>148.18</ele>
        <time>2018-08-16T12:15:06Z</time>
      </trkpt>
      <trkpt lat="49.6548" lon="5.01478">
        <ele>147.22</ele>
        <time>2018-08-16T12:15:18Z</time>
      </trkpt>
      <trkpt lat="49.6549" lon="5.01463">
        <ele>148.66</ele>
        <time>2018-08-16T12:15:30Z</time>
      </trkpt>
      <trkpt lat="49.655" lon="5.0144">
        <ele>149.62</ele>
        <time>2018-08-16T12:15:45Z</time>
      </trkpt>
      <trkpt lat="49.65506" lon="5.01432">
        <ele>149.62</ele>
        <time>2018-08-16T12:15:51Z</time>
      </trkpt>
      <trkpt lat="49.65508" lon="5.01429">
        <ele>149.62</ele>
        <time>2018-08-16T12:15:53Z</time>
      </trkpt>
      <trkpt lat="49.65513" lon="5.01418">
        <ele>150.1</ele>
        <time>2018-08-16T12:16:01Z</time>
      </trkpt>
      <trkpt lat="49.65521" lon="5.01406">
        <ele>148.66</ele>
        <time>2018-08-16T12:16:09Z</time>
      </trkpt>
      <trkpt lat="49.65532" lon="5.01387">
        <ele>150.1</ele>
        <time>2018-08-16T12:16:24Z</time>
      </trkpt>
      <trkpt lat="49.65542" lon="5.0137">
        <ele>150.1</ele>
        <time>2018-08-16T12:16:37Z</time>
      </trkpt>
      <trkpt lat="49.65546" lon="5.01364">
        <ele>149.62</ele>
        <time>2018-08-16T12:16:43Z</time>
      </trkpt>
      <trkpt lat="49.65552" lon="5.0135">
        <ele>149.62</ele>
        <time>2018-08-16T12:16:54Z</time>
      </trkpt>
      <trkpt lat="49.65562" lon="5.01333">
        <ele>150.58</ele>
        <time>2018-08-16T12:17:06Z</time>
      </trkpt>
      <trkpt lat="49.65573" lon="5.01316">
        <ele>150.1</ele>
        <time>2018-08-16T12:17:19Z</time>
      </trkpt>
      <trkpt lat="49.65582" lon="5.013">
        <ele>150.58</ele>
        <time>2018-08-16T12:17:31Z</time>
      </trkpt>
      <trkpt lat="49.65594" lon="5.01279">
        <ele>150.58</ele>
        <time>2018-08-16T12:17:47Z</time>
      </trkpt>
      <trkpt lat="49.65605" lon="5.01263">
        <ele>150.58</ele>
        <time>2018-08-16T12:18:00Z</time>
      </trkpt>
      <trkpt lat="49.65614" lon="5.01248">
        <ele>151.54</ele>
        <time>2018-08-16T12:18:11Z</time>
      </trkpt>
      <trkpt lat="49.65617" lon="5.01239">
        <ele>151.54</ele>
        <time>2018-08-16T12:18:17Z</time>
      </trkpt>
      <trkpt lat="49.65627" lon="5.01226">
        <ele>152.51</ele>
        <time>2018-08-16T12:18:29Z</time>
      </trkpt>
      <trkpt lat="49.65639" lon="5.01208">
        <ele>153.47</ele>
        <time>2018-08-16T12:18:42Z</time>
      </trkpt>
      <trkpt lat="49.6564" lon="5.01204">
        <ele>153.47</ele>
        <time>2018-08-16T12:18:44Z</time>
      </trkpt>
      <trkpt lat="49.65645" lon="5.01196">
        <ele>153.47</ele>
        <time>2018-08-16T12:18:52Z</time>
      </trkpt>
      <trkpt lat="49.65651" lon="5.01191">
        <ele>152.99</ele>
        <time>2018-08-16T12:18:57Z</time>
      </trkpt>
      <trkpt lat="49.65656" lon="5.0118">
        <ele>152.51</ele>
        <time>2018-08-16T12:19:06Z</time>
      </trkpt>
      <trkpt lat="49.65665" lon="5.01165">
        <ele>150.58</ele>
        <time>2018-08-16T12:19:19Z</time>
      </trkpt>
      <trkpt lat="49.65677" lon="5.01145">
        <ele>150.1</ele>
        <time>2018-08-16T12:19:34Z</time>
      </trkpt>
      <trkpt lat="49.65685" lon="5.0113">
        <ele>150.1</ele>
        <time>2018-08-16T12:19:45Z</time>
      </trkpt>
      <trkpt lat="49.65682" lon="5.01093">
        <ele>151.54</ele>
        <time>2018-08-16T12:20:04Z</time>
      </trkpt>
      <trkpt lat="49.6568" lon="5.01068">
        <ele>152.03</ele>
        <time>2018-08-16T12:20:18Z</time>
      </trkpt>
      <trkpt lat="49.65679" lon="5.0104">
        <ele>152.99</ele>
        <time>2018-08-16T12:20:33Z</time>
      </trkpt>
      <trkpt lat="49.65678" lon="5.01018">
        <ele>152.99</ele>
        <time>2018-08-16T12:20:46Z</time>
      </trkpt>
      <trkpt lat="49.65675" lon="5.00991">
        <ele>153.47</ele>
        <time>2018-08-16T12:21:01Z</time>
      </trkpt>
      <trkpt lat="49.65672" lon="5.00964">
        <ele>152.99</ele>
        <time>2018-08-16T12:21:16Z</time>
      </trkpt>
      <trkpt lat="49.6567" lon="5.0094">
        <ele>153.47</ele>
        <time>2018-08-16T12:21:30Z</time>
      </trkpt>
      <trkpt lat="49.65667" lon="5.00911">
        <ele>153.95</ele>
        <time>2018-08-16T12:21:45Z</time>
      </trkpt>
      <trkpt lat="49.65664" lon="5.00886">
        <ele>153.95</ele>
        <time>2018-08-16T12:21:59Z</time>
      </trkpt>
      <trkpt lat="49.6566" lon="5.00862">
        <ele>153.95</ele>
        <time>2018-08-16T12:22:13Z</time>
      </trkpt>
      <trkpt lat="49.65657" lon="5.00839">
        <ele>153.95</ele>
        <time>2018-08-16T12:22:26Z</time>
      </trkpt>
      <trkpt lat="49.65654" lon="5.00817">
        <ele>152.99</ele>
        <time>2018-08-16T12:22:39Z</time>
      </trkpt>
      <trkpt lat="49.65652" lon="5.00794">
        <ele>152.51</ele>
        <time>2018-08-16T12:22:52Z</time>
      </trkpt>
      <trkpt lat="49.6565" lon="5.0077">
        <ele>152.03</ele>
        <time>2018-08-16T12:23:06Z</time>
      </trkpt>
      <trkpt lat="49.65647" lon="5.00749">
        <ele>151.54</ele>
        <time>2018-08-16T12:23:18Z</time>
      </trkpt>
      <trkpt lat="49.65644" lon="5.00727">
        <ele>150.58</ele>
        <time>2018-08-16T12:23:31Z</time>
      </trkpt>
      <trkpt lat="49.6564" lon="5.00707">
        <ele>150.1</ele>
        <time>2018-08-16T12:23:43Z</time>
      </trkpt>
      <trkpt lat="49.65638" lon="5.0068">
        <ele>150.58</ele>
        <time>2018-08-16T12:23:57Z</time>
      </trkpt>
      <trkpt lat="49.65635" lon="5.00657">
        <ele>151.06</ele>
        <time>2018-08-16T12:24:10Z</time>
      </trkpt>
      <trkpt lat="49.6563" lon="5.00635">
        <ele>151.54</ele>
        <time>2018-08-16T12:24:23Z</time>
      </trkpt>
      <trkpt lat="49.65625" lon="5.00614">
        <ele>152.03</ele>
        <time>2018-08-16T12:24:36Z</time>
      </trkpt>
      <trkpt lat="49.65617" lon="5.00594">
        <ele>152.03</ele>
        <time>2018-08-16T12:24:49Z</time>
      </trkpt>
      <trkpt lat="49.65609" lon="5.00575">
        <ele>151.54</ele>
        <time>2018-08-16T12:25:02Z</time>
      </trkpt>
      <trkpt lat="49.65599" lon="5.00554">
        <ele>151.06</ele>
        <time>2018-08-16T12:25:16Z</time>
      </trkpt>
      <trkpt lat="49.65591" lon="5.00536">
        <ele>150.58</ele>
        <time>2018-08-16T12:25:29Z</time>
      </trkpt>
      <trkpt lat="49.65582" lon="5.00517">
        <ele>150.1</ele>
        <time>2018-08-16T12:25:42Z</time>
      </trkpt>
      <trkpt lat="49.65581" lon="5.00513">
        <ele>150.1</ele>
        <time>2018-08-16T12:25:46Z</time>
      </trkpt>
      <trkpt lat="49.65569" lon="5.00487">
        <ele>150.1</ele>
        <time>2018-08-16T12:26:03Z</time>
      </trkpt>
      <trkpt lat="49.65559" lon="5.00465">
        <ele>150.1</ele>
        <time>2018-08-16T12:26:18Z</time>
      </trkpt>
      <trkpt lat="49.65549" lon="5.00446">
        <ele>149.62</ele>
        <time>2018-08-16T12:26:32Z</time>
      </trkpt>
      <trkpt lat="49.6554" lon="5.00427">
        <ele>149.62</ele>
        <time>2018-08-16T12:26:45Z</time>
      </trkpt>
      <trkpt lat="49.65535" lon="5.00418">
        <ele>149.62</ele>
        <time>2018-08-16T12:26:53Z</time>
      </trkpt>
      <trkpt lat="49.65526" lon="5.00396">
        <ele>149.62</ele>
        <time>2018-08-16T12:27:08Z</time>
      </trkpt>
      <trkpt lat="49.65516" lon="5.00373">
        <ele>149.62</ele>
        <time>2018-08-16T12:27:23Z</time>
      </trkpt>
      <trkpt lat="49.65506" lon="5.00352">
        <ele>149.62</ele>
        <time>2018-08-16T12:27:37Z</time>
      </trkpt>
      <trkpt lat="49.65502" lon="5.00345">
        <ele>149.62</ele>
        <time>2018-08-16T12:27:44Z</time>
      </trkpt>
      <trkpt lat="49.65497" lon="5.00332">
        <ele>150.1</ele>
        <time>2018-08-16T12:27:51Z</time>
      </trkpt>
      <trkpt lat="49.65487" lon="5.00311">
        <ele>150.1</ele>
        <time>2018-08-16T12:28:06Z</time>
      </trkpt>
      <trkpt lat="49.65479" lon="5.00292">
        <ele>149.62</ele>
        <time>2018-08-16T12:28:19Z</time>
      </trkpt>
      <trkpt lat="49.65474" lon="5.00283">
        <ele>149.62</ele>
        <time>2018-08-16T12:28:27Z</time>
      </trkpt>
      <trkpt lat="49.65463" lon="5.00258">
        <ele>149.62</ele>
        <time>2018-08-16T12:28:43Z</time>
      </trkpt>
      <trkpt lat="49.65454" lon="5.00238">
        <ele>149.14</ele>
        <time>2018-08-16T12:28:57Z</time>
      </trkpt>
      <trkpt lat="49.65449" lon="5.0023">
        <ele>148.66</ele>
        <time>2018-08-16T12:29:04Z</time>
      </trkpt>
      <trkpt lat="49.65439" lon="5.00205">
        <ele>149.14</ele>
        <time>2018-08-16T12:29:21Z</time>
      </trkpt>
      <trkpt lat="49.6543" lon="5.00185">
        <ele>148.66</ele>
        <time>2018-08-16T12:29:34Z</time>
      </trkpt>
      <trkpt lat="49.65421" lon="5.00164">
        <ele>149.14</ele>
        <time>2018-08-16T12:29:48Z</time>
      </trkpt>
      <trkpt lat="49.65417" lon="5.00157">
        <ele>149.14</ele>
        <time>2018-08-16T12:29:55Z</time>
      </trkpt>
      <trkpt lat="49.65408" lon="5.00134">
        <ele>151.06</ele>
        <time>2018-08-16T12:30:10Z</time>
      </trkpt>
      <trkpt lat="49.65397" lon="5.00113">
        <ele>152.03</ele>
        <time>2018-08-16T12:30:25Z</time>
      </trkpt>
      <trkpt lat="49.65384" lon="5.00095">
        <ele>152.99</ele>
        <time>2018-08-16T12:30:39Z</time>
      </trkpt>
      <trkpt lat="49.65373" lon="5.0008">
        <ele>155.39</ele>
        <time>2018-08-16T12:30:51Z</time>
      </trkpt>
      <trkpt lat="49.65362" lon="5.00065">
        <ele>155.87</ele>
        <time>2018-08-16T12:31:04Z</time>
      </trkpt>
      <trkpt lat="49.65355" lon="5.00055">
        <ele>155.39</ele>
        <time>2018-08-16T12:31:15Z</time>
      </trkpt>
      <trkpt lat="49.65351" lon="5.00049">
        <ele>155.87</ele>
        <time>2018-08-16T12:31:19Z</time>
      </trkpt>
      <trkpt lat="49.65339" lon="5.00036">
        <ele>155.39</ele>
        <time>2018-08-16T12:31:32Z</time>
      </trkpt>
      <trkpt lat="49.65324" lon="5.0002">
        <ele>154.91</ele>
        <time>2018-08-16T12:31:48Z</time>
      </trkpt>
      <trkpt lat="49.65312" lon="5.00006">
        <ele>154.91</ele>
        <time>2018-08-16T12:32:01Z</time>
      </trkpt>
      <trkpt lat="49.653" lon="4.99991">
        <ele>155.87</ele>
        <time>2018-08-16T12:32:14Z</time>
      </trkpt>
      <trkpt lat="49.6529" lon="4.99981">
        <ele>159.24</ele>
        <time>2018-08-16T12:32:25Z</time>
      </trkpt>
      <trkpt lat="49.65278" lon="4.99968">
        <ele>163.56</ele>
        <time>2018-08-16T12:32:39Z</time>
      </trkpt>
      <trkpt lat="49.65265" lon="4.99954">
        <ele>165</ele>
        <time>2018-08-16T12:32:52Z</time>
      </trkpt>
      <trkpt lat="49.65257" lon="4.99943">
        <ele>162.6</ele>
        <time>2018-08-16T12:33:05Z</time>
      </trkpt>
      <trkpt lat="49.65257" lon="4.99944">
        <ele>162.12</ele>
        <time>2018-08-16T12:33:07Z</time>
      </trkpt>
      <trkpt lat="49.65259" lon="4.99952">
        <ele>160.68</ele>
        <time>2018-08-16T12:33:16Z</time>
      </trkpt>
      <trkpt lat="49.65262" lon="4.9996">
        <ele>160.68</ele>
        <time>2018-08-16T12:33:22Z</time>
      </trkpt>
      <trkpt lat="49.65273" lon="4.99973">
        <ele>158.27</ele>
        <time>2018-08-16T12:33:36Z</time>
      </trkpt>
      <trkpt lat="49.65275" lon="4.99978">
        <ele>158.27</ele>
        <time>2018-08-16T12:33:39Z</time>
      </trkpt>
      <trkpt lat="49.65285" lon="4.9999">
        <ele>156.83</ele>
        <time>2018-08-16T12:33:51Z</time>
      </trkpt>
      <trkpt lat="49.6529" lon="5.00007">
        <ele>156.35</ele>
        <time>2018-08-16T12:34:01Z</time>
      </trkpt>
      <trkpt lat="49.65294" lon="5.00015">
        <ele>155.87</ele>
        <time>2018-08-16T12:34:09Z</time>
      </trkpt>
      <trkpt lat="49.65296" lon="5.00023">
        <ele>155.39</ele>
        <time>2018-08-16T12:34:13Z</time>
      </trkpt>
      <trkpt lat="49.65291" lon="5.0004">
        <ele>152.03</ele>
        <time>2018-08-16T12:34:27Z</time>
      </trkpt>
      <trkpt lat="49.65283" lon="5.00054">
        <ele>150.1</ele>
        <time>2018-08-16T12:34:39Z</time>
      </trkpt>
      <trkpt lat="49.65279" lon="5.00059">
        <ele>150.1</ele>
        <time>2018-08-16T12:34:43Z</time>
      </trkpt>
      <trkpt lat="49.65271" lon="5.00074">
        <ele>148.66</ele>
        <time>2018-08-16T12:34:55Z</time>
      </trkpt>
      <trkpt lat="49.6526" lon="5.00095">
        <ele>148.18</ele>
        <time>2018-08-16T12:35:10Z</time>
      </trkpt>
      <trkpt lat="49.65247" lon="5.00113">
        <ele>149.14</ele>
        <time>2018-08-16T12:35:25Z</time>
      </trkpt>
      <trkpt lat="49.65236" lon="5.00128">
        <ele>150.1</ele>
        <time>2018-08-16T12:35:38Z</time>
      </trkpt>
      <trkpt lat="49.65226" lon="5.00142">
        <ele>150.1</ele>
        <time>2018-08-16T12:35:51Z</time>
      </trkpt>
      <trkpt lat="49.65222" lon="5.00143">
        <ele>150.1</ele>
        <time>2018-08-16T12:35:55Z</time>
      </trkpt>
      <trkpt lat="49.65215" lon="5.00144">
        <ele>150.1</ele>
        <time>2018-08-16T12:35:59Z</time>
      </trkpt>
      <trkpt lat="49.65203" lon="5.0015">
        <ele>148.66</ele>
        <time>2018-08-16T12:36:11Z</time>
      </trkpt>
      <trkpt lat="49.6519" lon="5.00158">
        <ele>148.66</ele>
        <time>2018-08-16T12:36:25Z</time>
      </trkpt>
      <trkpt lat="49.65175" lon="5.00165">
        <ele>149.14</ele>
        <time>2018-08-16T12:36:41Z</time>
      </trkpt>
      <trkpt lat="49.65163" lon="5.00171">
        <ele>151.06</ele>
        <time>2018-08-16T12:36:51Z</time>
      </trkpt>
      <trkpt lat="49.65153" lon="5.00177">
        <ele>153.95</ele>
        <time>2018-08-16T12:37:04Z</time>
      </trkpt>
      <trkpt lat="49.65131" lon="5.00188">
        <ele>152.99</ele>
        <time>2018-08-16T12:37:20Z</time>
      </trkpt>
      <trkpt lat="49.6512" lon="5.002">
        <ele>153.47</ele>
        <time>2018-08-16T12:37:34Z</time>
      </trkpt>
      <trkpt lat="49.65108" lon="5.00213">
        <ele>154.43</ele>
        <time>2018-08-16T12:37:47Z</time>
      </trkpt>
      <trkpt lat="49.65095" lon="5.00227">
        <ele>154.91</ele>
        <time>2018-08-16T12:38:00Z</time>
      </trkpt>
      <trkpt lat="49.65085" lon="5.00238">
        <ele>156.83</ele>
        <time>2018-08-16T12:38:11Z</time>
      </trkpt>
      <trkpt lat="49.65075" lon="5.00257">
        <ele>155.39</ele>
        <time>2018-08-16T12:38:24Z</time>
      </trkpt>
      <trkpt lat="49.65072" lon="5.00268">
        <ele>155.87</ele>
        <time>2018-08-16T12:38:32Z</time>
      </trkpt>
      <trkpt lat="49.65061" lon="5.00288">
        <ele>156.35</ele>
        <time>2018-08-16T12:38:47Z</time>
      </trkpt>
      <trkpt lat="49.65051" lon="5.00308">
        <ele>155.87</ele>
        <time>2018-08-16T12:39:01Z</time>
      </trkpt>
      <trkpt lat="49.65044" lon="5.00321">
        <ele>155.87</ele>
        <time>2018-08-16T12:39:08Z</time>
      </trkpt>
      <trkpt lat="49.65036" lon="5.00339">
        <ele>154.91</ele>
        <time>2018-08-16T12:39:22Z</time>
      </trkpt>
      <trkpt lat="49.65033" lon="5.0035">
        <ele>155.39</ele>
        <time>2018-08-16T12:39:31Z</time>
      </trkpt>
      <trkpt lat="49.65026" lon="5.00368">
        <ele>156.35</ele>
        <time>2018-08-16T12:39:44Z</time>
      </trkpt>
      <trkpt lat="49.65023" lon="5.0038">
        <ele>156.83</ele>
        <time>2018-08-16T12:39:52Z</time>
      </trkpt>
      <trkpt lat="49.65018" lon="5.00399">
        <ele>157.79</ele>
        <time>2018-08-16T12:40:06Z</time>
      </trkpt>
      <trkpt lat="49.65015" lon="5.00417">
        <ele>158.27</ele>
        <time>2018-08-16T12:40:17Z</time>
      </trkpt>
      <trkpt lat="49.65012" lon="5.0043">
        <ele>158.27</ele>
        <time>2018-08-16T12:40:27Z</time>
      </trkpt>
      <trkpt lat="49.65009" lon="5.00451">
        <ele>158.27</ele>
        <time>2018-08-16T12:40:41Z</time>
      </trkpt>
      <trkpt lat="49.65005" lon="5.0047">
        <ele>159.72</ele>
        <time>2018-08-16T12:40:53Z</time>
      </trkpt>
      <trkpt lat="49.65001" lon="5.00485">
        <ele>159.24</ele>
        <time>2018-08-16T12:41:01Z</time>
      </trkpt>
      <trkpt lat="49.64999" lon="5.00495">
        <ele>157.79</ele>
        <time>2018-08-16T12:41:09Z</time>
      </trkpt>
      <trkpt lat="49.64999" lon="5.00504">
        <ele>157.79</ele>
        <time>2018-08-16T12:41:13Z</time>
      </trkpt>
      <trkpt lat="49.64998" lon="5.0051">
        <ele>158.27</ele>
        <time>2018-08-16T12:41:16Z</time>
      </trkpt>
      <trkpt lat="49.64993" lon="5.0053">
        <ele>156.83</ele>
        <time>2018-08-16T12:41:29Z</time>
      </trkpt>
      <trkpt lat="49.64989" lon="5.00551">
        <ele>155.39</ele>
        <time>2018-08-16T12:41:42Z</time>
      </trkpt>
      <trkpt lat="49.64989" lon="5.00566">
        <ele>153.95</ele>
        <time>2018-08-16T12:41:51Z</time>
      </trkpt>
      <trkpt lat="49.64992" lon="5.0059">
        <ele>152.51</ele>
        <time>2018-08-16T12:42:05Z</time>
      </trkpt>
      <trkpt lat="49.64995" lon="5.00615">
        <ele>152.51</ele>
        <time>2018-08-16T12:42:19Z</time>
      </trkpt>
      <trkpt lat="49.64996" lon="5.00619">
        <ele>152.51</ele>
        <time>2018-08-16T12:42:21Z</time>
      </trkpt>
      <trkpt lat="49.65001" lon="5.00635">
        <ele>152.03</ele>
        <time>2018-08-16T12:42:31Z</time>
      </trkpt>
      <trkpt lat="49.65009" lon="5.00647">
        <ele>151.54</ele>
        <time>2018-08-16T12:42:41Z</time>
      </trkpt>
      <trkpt lat="49.65018" lon="5.00662">
        <ele>151.54</ele>
        <time>2018-08-16T12:42:53Z</time>
      </trkpt>
      <trkpt lat="49.65019" lon="5.00664">
        <ele>151.54</ele>
        <time>2018-08-16T12:42:54Z</time>
      </trkpt>
      <trkpt lat="49.65018" lon="5.00684">
        <ele>151.06</ele>
        <time>2018-08-16T12:43:06Z</time>
      </trkpt>
      <trkpt lat="49.65014" lon="5.00698">
        <ele>150.58</ele>
        <time>2018-08-16T12:43:17Z</time>
      </trkpt>
      <trkpt lat="49.65009" lon="5.00717">
        <ele>150.1</ele>
        <time>2018-08-16T12:43:30Z</time>
      </trkpt>
      <trkpt lat="49.65001" lon="5.00737">
        <ele>150.1</ele>
        <time>2018-08-16T12:43:43Z</time>
      </trkpt>
      <trkpt lat="49.64995" lon="5.00756">
        <ele>150.58</ele>
        <time>2018-08-16T12:43:55Z</time>
      </trkpt>
      <trkpt lat="49.64987" lon="5.00777">
        <ele>151.06</ele>
        <time>2018-08-16T12:44:09Z</time>
      </trkpt>
      <trkpt lat="49.64982" lon="5.00796">
        <ele>151.06</ele>
        <time>2018-08-16T12:44:22Z</time>
      </trkpt>
      <trkpt lat="49.64978" lon="5.00817">
        <ele>151.54</ele>
        <time>2018-08-16T12:44:35Z</time>
      </trkpt>
      <trkpt lat="49.64977" lon="5.00819">
        <ele>151.54</ele>
        <time>2018-08-16T12:44:37Z</time>
      </trkpt>
      <trkpt lat="49.64971" lon="5.00837">
        <ele>153.47</ele>
        <time>2018-08-16T12:44:50Z</time>
      </trkpt>
      <trkpt lat="49.64962" lon="5.00852">
        <ele>154.43</ele>
        <time>2018-08-16T12:45:03Z</time>
      </trkpt>
      <trkpt lat="49.6495" lon="5.00871">
        <ele>153.95</ele>
        <time>2018-08-16T12:45:17Z</time>
      </trkpt>
      <trkpt lat="49.64948" lon="5.00875">
        <ele>154.43</ele>
        <time>2018-08-16T12:45:19Z</time>
      </trkpt>
      <trkpt lat="49.64944" lon="5.00894">
        <ele>156.35</ele>
        <time>2018-08-16T12:45:32Z</time>
      </trkpt>
      <trkpt lat="49.64941" lon="5.00904">
        <ele>156.83</ele>
        <time>2018-08-16T12:45:37Z</time>
      </trkpt>
      <trkpt lat="49.64939" lon="5.00914">
        <ele>157.31</ele>
        <time>2018-08-16T12:45:45Z</time>
      </trkpt>
      <trkpt lat="49.64939" lon="5.00924">
        <ele>156.35</ele>
        <time>2018-08-16T12:45:50Z</time>
      </trkpt>
      <trkpt lat="49.64941" lon="5.00946">
        <ele>153.47</ele>
        <time>2018-08-16T12:46:04Z</time>
      </trkpt>
      <trkpt lat="49.64941" lon="5.00967">
        <ele>152.51</ele>
        <time>2018-08-16T12:46:16Z</time>
      </trkpt>
      <trkpt lat="49.64945" lon="5.00985">
        <ele>152.99</ele>
        <time>2018-08-16T12:46:27Z</time>
      </trkpt>
      <trkpt lat="49.64947" lon="5.01007">
        <ele>152.03</ele>
        <time>2018-08-16T12:46:40Z</time>
      </trkpt>
      <trkpt lat="49.64948" lon="5.01026">
        <ele>151.54</ele>
        <time>2018-08-16T12:46:52Z</time>
      </trkpt>
      <trkpt lat="49.64949" lon="5.01042">
        <ele>151.06</ele>
        <time>2018-08-16T12:47:02Z</time>
      </trkpt>
      <trkpt lat="49.64949" lon="5.01062">
        <ele>150.58</ele>
        <time>2018-08-16T12:47:14Z</time>
      </trkpt>
      <trkpt lat="49.64947" lon="5.01083">
        <ele>150.58</ele>
        <time>2018-08-16T12:47:27Z</time>
      </trkpt>
      <trkpt lat="49.64946" lon="5.01097">
        <ele>151.06</ele>
        <time>2018-08-16T12:47:38Z</time>
      </trkpt>
      <trkpt lat="49.64946" lon="5.011">
        <ele>150.58</ele>
        <time>2018-08-16T12:47:40Z</time>
      </trkpt>
      <trkpt lat="49.64943" lon="5.01119">
        <ele>149.62</ele>
        <time>2018-08-16T12:47:51Z</time>
      </trkpt>
      <trkpt lat="49.6494" lon="5.01142">
        <ele>150.1</ele>
        <time>2018-08-16T12:48:04Z</time>
      </trkpt>
      <trkpt lat="49.64938" lon="5.01166">
        <ele>149.62</ele>
        <time>2018-08-16T12:48:19Z</time>
      </trkpt>
      <trkpt lat="49.64936" lon="5.01184">
        <ele>149.62</ele>
        <time>2018-08-16T12:48:32Z</time>
      </trkpt>
      <trkpt lat="49.64932" lon="5.01206">
        <ele>149.62</ele>
        <time>2018-08-16T12:48:45Z</time>
      </trkpt>
      <trkpt lat="49.64929" lon="5.01224">
        <ele>149.14</ele>
        <time>2018-08-16T12:48:57Z</time>
      </trkpt>
      <trkpt lat="49.64928" lon="5.01238">
        <ele>149.62</ele>
        <time>2018-08-16T12:49:07Z</time>
      </trkpt>
      <trkpt lat="49.64926" lon="5.01255">
        <ele>150.58</ele>
        <time>2018-08-16T12:49:18Z</time>
      </trkpt>
      <trkpt lat="49.64923" lon="5.01274">
        <ele>151.54</ele>
        <time>2018-08-16T12:49:29Z</time>
      </trkpt>
      <trkpt lat="49.64919" lon="5.01298">
        <ele>151.54</ele>
        <time>2018-08-16T12:49:43Z</time>
      </trkpt>
      <trkpt lat="49.64914" lon="5.01317">
        <ele>151.06</ele>
        <time>2018-08-16T12:49:55Z</time>
      </trkpt>
      <trkpt lat="49.64909" lon="5.01338">
        <ele>151.06</ele>
        <time>2018-08-16T12:50:08Z</time>
      </trkpt>
      <trkpt lat="49.64904" lon="5.01361">
        <ele>150.1</ele>
        <time>2018-08-16T12:50:21Z</time>
      </trkpt>
      <trkpt lat="49.64901" lon="5.01371">
        <ele>149.62</ele>
        <time>2018-08-16T12:50:30Z</time>
      </trkpt>
      <trkpt lat="49.64893" lon="5.01387">
        <ele>149.62</ele>
        <time>2018-08-16T12:50:42Z</time>
      </trkpt>
      <trkpt lat="49.64884" lon="5.01404">
        <ele>152.03</ele>
        <time>2018-08-16T12:50:56Z</time>
      </trkpt>
      <trkpt lat="49.64882" lon="5.0141">
        <ele>152.03</ele>
        <time>2018-08-16T12:50:59Z</time>
      </trkpt>
      <trkpt lat="49.64875" lon="5.01429">
        <ele>153.47</ele>
        <time>2018-08-16T12:51:12Z</time>
      </trkpt>
      <trkpt lat="49.64869" lon="5.01443">
        <ele>152.99</ele>
        <time>2018-08-16T12:51:25Z</time>
      </trkpt>
      <trkpt lat="49.64867" lon="5.01449">
        <ele>152.99</ele>
        <time>2018-08-16T12:51:28Z</time>
      </trkpt>
      <trkpt lat="49.64863" lon="5.01459">
        <ele>152.99</ele>
        <time>2018-08-16T12:51:35Z</time>
      </trkpt>
      <trkpt lat="49.64861" lon="5.01464">
        <ele>152.51</ele>
        <time>2018-08-16T12:51:38Z</time>
      </trkpt>
      <trkpt lat="49.64856" lon="5.01481">
        <ele>152.99</ele>
        <time>2018-08-16T12:51:49Z</time>
      </trkpt>
      <trkpt lat="49.64855" lon="5.01483">
        <ele>152.99</ele>
        <time>2018-08-16T12:51:50Z</time>
      </trkpt>
      <trkpt lat="49.64848" lon="5.01499">
        <ele>152.99</ele>
        <time>2018-08-16T12:52:02Z</time>
      </trkpt>
      <trkpt lat="49.64842" lon="5.01517">
        <ele>152.99</ele>
        <time>2018-08-16T12:52:14Z</time>
      </trkpt>
      <trkpt lat="49.64835" lon="5.01539">
        <ele>152.03</ele>
        <time>2018-08-16T12:52:27Z</time>
      </trkpt>
      <trkpt lat="49.64831" lon="5.01557">
        <ele>152.51</ele>
        <time>2018-08-16T12:52:39Z</time>
      </trkpt>
      <trkpt lat="49.64824" lon="5.01575">
        <ele>153.47</ele>
        <time>2018-08-16T12:52:51Z</time>
      </trkpt>
      <trkpt lat="49.64816" lon="5.01597">
        <ele>153.47</ele>
        <time>2018-08-16T12:53:05Z</time>
      </trkpt>
      <trkpt lat="49.6481" lon="5.01615">
        <ele>153.47</ele>
        <time>2018-08-16T12:53:17Z</time>
      </trkpt>
      <trkpt lat="49.64803" lon="5.01635">
        <ele>153.95</ele>
        <time>2018-08-16T12:53:29Z</time>
      </trkpt>
      <trkpt lat="49.64795" lon="5.01654">
        <ele>155.87</ele>
        <time>2018-08-16T12:53:41Z</time>
      </trkpt>
      <trkpt lat="49.64791" lon="5.01671">
        <ele>156.83</ele>
        <time>2018-08-16T12:53:53Z</time>
      </trkpt>
      <trkpt lat="49.64787" lon="5.01689">
        <ele>157.79</ele>
        <time>2018-08-16T12:54:05Z</time>
      </trkpt>
      <trkpt lat="49.64785" lon="5.01695">
        <ele>158.27</ele>
        <time>2018-08-16T12:54:17Z</time>
      </trkpt>
      <trkpt lat="49.64785" lon="5.01695">
        <ele>158.27</ele>
        <time>2018-08-16T12:54:32Z</time>
      </trkpt>
      <trkpt lat="49.64782" lon="5.01704">
        <ele>157.31</ele>
        <time>2018-08-16T12:54:48Z</time>
      </trkpt>
      <trkpt lat="49.6478" lon="5.01707">
        <ele>157.31</ele>
        <time>2018-08-16T12:54:51Z</time>
      </trkpt>
      <trkpt lat="49.64768" lon="5.0173">
        <ele>156.35</ele>
        <time>2018-08-16T12:55:08Z</time>
      </trkpt>
      <trkpt lat="49.64762" lon="5.01739">
        <ele>155.39</ele>
        <time>2018-08-16T12:55:18Z</time>
      </trkpt>
      <trkpt lat="49.6475" lon="5.01768">
        <ele>156.83</ele>
        <time>2018-08-16T12:55:32Z</time>
      </trkpt>
      <trkpt lat="49.64739" lon="5.01797">
        <ele>155.39</ele>
        <time>2018-08-16T12:55:50Z</time>
      </trkpt>
      <trkpt lat="49.64734" lon="5.01814">
        <ele>155.39</ele>
        <time>2018-08-16T12:56:02Z</time>
      </trkpt>
      <trkpt lat="49.64723" lon="5.01846">
        <ele>154.43</ele>
        <time>2018-08-16T12:56:20Z</time>
      </trkpt>
      <trkpt lat="49.64722" lon="5.01848">
        <ele>154.43</ele>
        <time>2018-08-16T12:56:22Z</time>
      </trkpt>
      <trkpt lat="49.64708" lon="5.01885">
        <ele>155.39</ele>
        <time>2018-08-16T12:56:41Z</time>
      </trkpt>
      <trkpt lat="49.64704" lon="5.01897">
        <ele>155.87</ele>
        <time>2018-08-16T12:56:52Z</time>
      </trkpt>
      <trkpt lat="49.64701" lon="5.01904">
        <ele>155.39</ele>
        <time>2018-08-16T12:56:56Z</time>
      </trkpt>
      <trkpt lat="49.6469" lon="5.01933">
        <ele>155.39</ele>
        <time>2018-08-16T12:57:15Z</time>
      </trkpt>
      <trkpt lat="49.64689" lon="5.01934">
        <ele>155.39</ele>
        <time>2018-08-16T12:57:16Z</time>
      </trkpt>
      <trkpt lat="49.64676" lon="5.01966">
        <ele>156.83</ele>
        <time>2018-08-16T12:57:34Z</time>
      </trkpt>
      <trkpt lat="49.64673" lon="5.01973">
        <ele>156.83</ele>
        <time>2018-08-16T12:57:42Z</time>
      </trkpt>
      <trkpt lat="49.6466" lon="5.02004">
        <ele>158.27</ele>
        <time>2018-08-16T12:58:00Z</time>
      </trkpt>
      <trkpt lat="49.64657" lon="5.02011">
        <ele>157.31</ele>
        <time>2018-08-16T12:58:07Z</time>
      </trkpt>
      <trkpt lat="49.64642" lon="5.02048">
        <ele>156.83</ele>
        <time>2018-08-16T12:58:27Z</time>
      </trkpt>
      <trkpt lat="49.64631" lon="5.02074">
        <ele>156.83</ele>
        <time>2018-08-16T12:58:45Z</time>
      </trkpt>
      <trkpt lat="49.64623" lon="5.02095">
        <ele>156.83</ele>
        <time>2018-08-16T12:59:00Z</time>
      </trkpt>
      <trkpt lat="49.64614" lon="5.02119">
        <ele>157.31</ele>
        <time>2018-08-16T12:59:14Z</time>
      </trkpt>
      <trkpt lat="49.64601" lon="5.02148">
        <ele>155.87</ele>
        <time>2018-08-16T12:59:33Z</time>
      </trkpt>
      <trkpt lat="49.64593" lon="5.02168">
        <ele>156.35</ele>
        <time>2018-08-16T12:59:48Z</time>
      </trkpt>
      <trkpt lat="49.64583" lon="5.02195">
        <ele>156.83</ele>
        <time>2018-08-16T13:00:06Z</time>
      </trkpt>
      <trkpt lat="49.64572" lon="5.02224">
        <ele>157.31</ele>
        <time>2018-08-16T13:00:23Z</time>
      </trkpt>
      <trkpt lat="49.64561" lon="5.02248">
        <ele>158.27</ele>
        <time>2018-08-16T13:00:40Z</time>
      </trkpt>
      <trkpt lat="49.64554" lon="5.0227">
        <ele>159.24</ele>
        <time>2018-08-16T13:00:55Z</time>
      </trkpt>
      <trkpt lat="49.64542" lon="5.02302">
        <ele>160.2</ele>
        <time>2018-08-16T13:01:14Z</time>
      </trkpt>
      <trkpt lat="49.64529" lon="5.02329">
        <ele>158.75</ele>
        <time>2018-08-16T13:01:32Z</time>
      </trkpt>
      <trkpt lat="49.64519" lon="5.02354">
        <ele>158.27</ele>
        <time>2018-08-16T13:01:50Z</time>
      </trkpt>
      <trkpt lat="49.64509" lon="5.02383">
        <ele>159.24</ele>
        <time>2018-08-16T13:02:07Z</time>
      </trkpt>
      <trkpt lat="49.64505" lon="5.02392">
        <ele>158.75</ele>
        <time>2018-08-16T13:02:15Z</time>
      </trkpt>
      <trkpt lat="49.6449" lon="5.02422">
        <ele>160.2</ele>
        <time>2018-08-16T13:02:32Z</time>
      </trkpt>
      <trkpt lat="49.64485" lon="5.02433">
        <ele>158.75</ele>
        <time>2018-08-16T13:02:43Z</time>
      </trkpt>
      <trkpt lat="49.64467" lon="5.02461">
        <ele>158.27</ele>
        <time>2018-08-16T13:03:02Z</time>
      </trkpt>
      <trkpt lat="49.64464" lon="5.02467">
        <ele>157.79</ele>
        <time>2018-08-16T13:03:09Z</time>
      </trkpt>
      <trkpt lat="49.64445" lon="5.02493">
        <ele>157.31</ele>
        <time>2018-08-16T13:03:28Z</time>
      </trkpt>
      <trkpt lat="49.6444" lon="5.02499">
        <ele>156.35</ele>
        <time>2018-08-16T13:03:37Z</time>
      </trkpt>
      <trkpt lat="49.64421" lon="5.0252">
        <ele>156.35</ele>
        <time>2018-08-16T13:03:55Z</time>
      </trkpt>
      <trkpt lat="49.64416" lon="5.02524">
        <ele>155.39</ele>
        <time>2018-08-16T13:04:02Z</time>
      </trkpt>
      <trkpt lat="49.64394" lon="5.02545">
        <ele>155.87</ele>
        <time>2018-08-16T13:04:21Z</time>
      </trkpt>
      <trkpt lat="49.64374" lon="5.02557">
        <ele>153.95</ele>
        <time>2018-08-16T13:04:41Z</time>
      </trkpt>
      <trkpt lat="49.6436" lon="5.02566">
        <ele>153.47</ele>
        <time>2018-08-16T13:04:56Z</time>
      </trkpt>
      <trkpt lat="49.64339" lon="5.02574">
        <ele>153.95</ele>
        <time>2018-08-16T13:05:12Z</time>
      </trkpt>
      <trkpt lat="49.6432" lon="5.02581">
        <ele>152.51</ele>
        <time>2018-08-16T13:05:30Z</time>
      </trkpt>
      <trkpt lat="49.64304" lon="5.02588">
        <ele>153.47</ele>
        <time>2018-08-16T13:05:46Z</time>
      </trkpt>
      <trkpt lat="49.64286" lon="5.02596">
        <ele>154.91</ele>
        <time>2018-08-16T13:06:00Z</time>
      </trkpt>
      <trkpt lat="49.64268" lon="5.026">
        <ele>153.95</ele>
        <time>2018-08-16T13:06:17Z</time>
      </trkpt>
      <trkpt lat="49.64254" lon="5.02607">
        <ele>152.51</ele>
        <time>2018-08-16T13:06:32Z</time>
      </trkpt>
      <trkpt lat="49.6423" lon="5.02614">
        <ele>153.95</ele>
        <time>2018-08-16T13:06:49Z</time>
      </trkpt>
      <trkpt lat="49.64213" lon="5.02623">
        <ele>152.51</ele>
        <time>2018-08-16T13:07:07Z</time>
      </trkpt>
      <trkpt lat="49.64194" lon="5.02633">
        <ele>152.03</ele>
        <time>2018-08-16T13:07:24Z</time>
      </trkpt>
      <trkpt lat="49.64175" lon="5.02642">
        <ele>152.51</ele>
        <time>2018-08-16T13:07:42Z</time>
      </trkpt>
      <trkpt lat="49.64156" lon="5.02652">
        <ele>155.39</ele>
        <time>2018-08-16T13:07:57Z</time>
      </trkpt>
      <trkpt lat="49.64142" lon="5.02664">
        <ele>154.91</ele>
        <time>2018-08-16T13:08:15Z</time>
      </trkpt>
      <trkpt lat="49.64119" lon="5.0268">
        <ele>156.83</ele>
        <time>2018-08-16T13:08:32Z</time>
      </trkpt>
      <trkpt lat="49.64103" lon="5.02696">
        <ele>156.83</ele>
        <time>2018-08-16T13:08:48Z</time>
      </trkpt>
      <trkpt lat="49.64088" lon="5.02709">
        <ele>153.95</ele>
        <time>2018-08-16T13:09:06Z</time>
      </trkpt>
      <trkpt lat="49.64071" lon="5.02722">
        <ele>154.43</ele>
        <time>2018-08-16T13:09:20Z</time>
      </trkpt>
      <trkpt lat="49.64065" lon="5.02729">
        <ele>155.39</ele>
        <time>2018-08-16T13:09:30Z</time>
      </trkpt>
      <trkpt lat="49.64047" lon="5.02744">
        <ele>155.39</ele>
        <time>2018-08-16T13:09:48Z</time>
      </trkpt>
      <trkpt lat="49.64029" lon="5.0276">
        <ele>154.91</ele>
        <time>2018-08-16T13:10:06Z</time>
      </trkpt>
      <trkpt lat="49.64016" lon="5.02771">
        <ele>155.87</ele>
        <time>2018-08-16T13:10:21Z</time>
      </trkpt>
      <trkpt lat="49.64008" lon="5.02781">
        <ele>156.83</ele>
        <time>2018-08-16T13:10:35Z</time>
      </trkpt>
      <trkpt lat="49.64006" lon="5.02784">
        <ele>157.31</ele>
        <time>2018-08-16T13:10:48Z</time>
      </trkpt>
      <trkpt lat="49.64004" lon="5.02787">
        <ele>157.79</ele>
        <time>2018-08-16T13:11:01Z</time>
      </trkpt>
      <trkpt lat="49.64005" lon="5.02788">
        <ele>156.83</ele>
        <time>2018-08-16T13:11:16Z</time>
      </trkpt>
      <trkpt lat="49.64004" lon="5.02789">
        <ele>156.83</ele>
        <time>2018-08-16T13:11:39Z</time>
      </trkpt>
      <trkpt lat="49.64003" lon="5.02787">
        <ele>155.87</ele>
        <time>2018-08-16T13:11:52Z</time>
      </trkpt>
      <trkpt lat="49.64003" lon="5.02787">
        <ele>154.91</ele>
        <time>2018-08-16T13:12:09Z</time>
      </trkpt>
      <trkpt lat="49.64003" lon="5.02788">
        <ele>153.95</ele>
        <time>2018-08-16T13:12:34Z</time>
      </trkpt>
      <trkpt lat="49.64002" lon="5.02789">
        <ele>153.47</ele>
        <time>2018-08-16T13:12:48Z</time>
      </trkpt>
      <trkpt lat="49.64002" lon="5.02788">
        <ele>152.99</ele>
        <time>2018-08-16T13:13:05Z</time>
      </trkpt>
      <trkpt lat="49.64003" lon="5.02787">
        <ele>152.99</ele>
        <time>2018-08-16T13:13:25Z</time>
      </trkpt>
      <trkpt lat="49.64003" lon="5.02786">
        <ele>152.99</ele>
        <time>2018-08-16T13:13:44Z</time>
      </trkpt>
      <trkpt lat="49.64003" lon="5.02786">
        <ele>153.47</ele>
        <time>2018-08-16T13:14:11Z</time>
      </trkpt>
      <trkpt lat="49.64003" lon="5.02787">
        <ele>153.47</ele>
        <time>2018-08-16T13:14:31Z</time>
      </trkpt>
      <trkpt lat="49.64003" lon="5.02788">
        <ele>153.95</ele>
        <time>2018-08-16T13:14:55Z</time>
      </trkpt>
      <trkpt lat="49.64004" lon="5.02788">
        <ele>153.47</ele>
        <time>2018-08-16T13:15:14Z</time>
      </trkpt>
      <trkpt lat="49.64003" lon="5.02787">
        <ele>153.47</ele>
        <time>2018-08-16T13:15:34Z</time>
      </trkpt>
      <trkpt lat="49.64004" lon="5.02786">
        <ele>153.47</ele>
        <time>2018-08-16T13:15:52Z</time>
      </trkpt>
      <trkpt lat="49.64003" lon="5.02787">
        <ele>154.43</ele>
        <time>2018-08-16T13:16:24Z</time>
      </trkpt>
      <trkpt lat="49.64003" lon="5.02787">
        <ele>154.43</ele>
        <time>2018-08-16T13:16:45Z</time>
      </trkpt>
      <trkpt lat="49.64003" lon="5.02788">
        <ele>155.39</ele>
        <time>2018-08-16T13:17:00Z</time>
      </trkpt>
      <trkpt lat="49.64003" lon="5.02788">
        <ele>155.39</ele>
        <time>2018-08-16T13:17:18Z</time>
      </trkpt>
      <trkpt lat="49.64004" lon="5.02787">
        <ele>155.39</ele>
        <time>2018-08-16T13:17:33Z</time>
      </trkpt>
      <trkpt lat="49.6401" lon="5.02779">
        <ele>155.39</ele>
        <time>2018-08-16T13:17:47Z</time>
      </trkpt>
      <trkpt lat="49.64011" lon="5.02778">
        <ele>155.39</ele>
        <time>2018-08-16T13:17:48Z</time>
      </trkpt>
      <trkpt lat="49.64026" lon="5.02763">
        <ele>155.39</ele>
        <time>2018-08-16T13:18:04Z</time>
      </trkpt>
      <trkpt lat="49.64029" lon="5.02761">
        <ele>155.39</ele>
        <time>2018-08-16T13:18:08Z</time>
      </trkpt>
      <trkpt lat="49.64043" lon="5.02749">
        <ele>155.87</ele>
        <time>2018-08-16T13:18:24Z</time>
      </trkpt>
      <trkpt lat="49.64057" lon="5.02738">
        <ele>155.39</ele>
        <time>2018-08-16T13:18:38Z</time>
      </trkpt>
      <trkpt lat="49.6407" lon="5.02726">
        <ele>155.39</ele>
        <time>2018-08-16T13:18:53Z</time>
      </trkpt>
      <trkpt lat="49.64083" lon="5.02717">
        <ele>154.43</ele>
        <time>2018-08-16T13:19:07Z</time>
      </trkpt>
      <trkpt lat="49.64098" lon="5.02703">
        <ele>153.47</ele>
        <time>2018-08-16T13:19:23Z</time>
      </trkpt>
      <trkpt lat="49.64113" lon="5.0269">
        <ele>153.95</ele>
        <time>2018-08-16T13:19:38Z</time>
      </trkpt>
      <trkpt lat="49.64122" lon="5.02684">
        <ele>152.99</ele>
        <time>2018-08-16T13:19:50Z</time>
      </trkpt>
      <trkpt lat="49.64135" lon="5.02673">
        <ele>152.99</ele>
        <time>2018-08-16T13:20:04Z</time>
      </trkpt>
      <trkpt lat="49.64153" lon="5.02661">
        <ele>154.91</ele>
        <time>2018-08-16T13:20:20Z</time>
      </trkpt>
      <trkpt lat="49.64169" lon="5.02649">
        <ele>154.43</ele>
        <time>2018-08-16T13:20:35Z</time>
      </trkpt>
      <trkpt lat="49.64187" lon="5.02641">
        <ele>154.43</ele>
        <time>2018-08-16T13:20:51Z</time>
      </trkpt>
      <trkpt lat="49.64205" lon="5.02631">
        <ele>154.91</ele>
        <time>2018-08-16T13:21:08Z</time>
      </trkpt>
      <trkpt lat="49.64225" lon="5.02619">
        <ele>155.39</ele>
        <time>2018-08-16T13:21:25Z</time>
      </trkpt>
      <trkpt lat="49.64244" lon="5.0261">
        <ele>157.31</ele>
        <time>2018-08-16T13:21:40Z</time>
      </trkpt>
      <trkpt lat="49.64248" lon="5.02609">
        <ele>156.35</ele>
        <time>2018-08-16T13:21:45Z</time>
      </trkpt>
      <trkpt lat="49.64271" lon="5.02601">
        <ele>156.35</ele>
        <time>2018-08-16T13:22:04Z</time>
      </trkpt>
      <trkpt lat="49.64291" lon="5.02593">
        <ele>155.87</ele>
        <time>2018-08-16T13:22:21Z</time>
      </trkpt>
      <trkpt lat="49.64313" lon="5.02586">
        <ele>156.35</ele>
        <time>2018-08-16T13:22:38Z</time>
      </trkpt>
      <trkpt lat="49.64332" lon="5.02579">
        <ele>155.87</ele>
        <time>2018-08-16T13:22:56Z</time>
      </trkpt>
      <trkpt lat="49.64348" lon="5.02572">
        <ele>155.39</ele>
        <time>2018-08-16T13:23:11Z</time>
      </trkpt>
      <trkpt lat="49.64367" lon="5.02562">
        <ele>154.43</ele>
        <time>2018-08-16T13:23:28Z</time>
      </trkpt>
      <trkpt lat="49.64385" lon="5.02549">
        <ele>155.39</ele>
        <time>2018-08-16T13:23:45Z</time>
      </trkpt>
      <trkpt lat="49.64402" lon="5.02536">
        <ele>155.87</ele>
        <time>2018-08-16T13:24:01Z</time>
      </trkpt>
      <trkpt lat="49.64416" lon="5.02521">
        <ele>155.39</ele>
        <time>2018-08-16T13:24:16Z</time>
      </trkpt>
      <trkpt lat="49.64432" lon="5.02504">
        <ele>154.43</ele>
        <time>2018-08-16T13:24:34Z</time>
      </trkpt>
      <trkpt lat="49.64445" lon="5.02486">
        <ele>154.43</ele>
        <time>2018-08-16T13:24:50Z</time>
      </trkpt>
      <trkpt lat="49.64458" lon="5.02467">
        <ele>153.95</ele>
        <time>2018-08-16T13:25:06Z</time>
      </trkpt>
      <trkpt lat="49.64472" lon="5.02444">
        <ele>152.51</ele>
        <time>2018-08-16T13:25:22Z</time>
      </trkpt>
      <trkpt lat="49.64487" lon="5.02417">
        <ele>152.03</ele>
        <time>2018-08-16T13:25:41Z</time>
      </trkpt>
      <trkpt lat="49.64499" lon="5.02391">
        <ele>152.03</ele>
        <time>2018-08-16T13:26:00Z</time>
      </trkpt>
      <trkpt lat="49.64501" lon="5.02385">
        <ele>152.03</ele>
        <time>2018-08-16T13:26:05Z</time>
      </trkpt>
      <trkpt lat="49.64512" lon="5.02358">
        <ele>152.51</ele>
        <time>2018-08-16T13:26:23Z</time>
      </trkpt>
      <trkpt lat="49.64513" lon="5.02357">
        <ele>152.51</ele>
        <time>2018-08-16T13:26:24Z</time>
      </trkpt>
      <trkpt lat="49.64525" lon="5.02325">
        <ele>151.06</ele>
        <time>2018-08-16T13:26:44Z</time>
      </trkpt>
      <trkpt lat="49.64537" lon="5.02298">
        <ele>152.51</ele>
        <time>2018-08-16T13:27:01Z</time>
      </trkpt>
      <trkpt lat="49.64549" lon="5.02271">
        <ele>153.95</ele>
        <time>2018-08-16T13:27:19Z</time>
      </trkpt>
      <trkpt lat="49.64553" lon="5.02259">
        <ele>154.43</ele>
        <time>2018-08-16T13:27:28Z</time>
      </trkpt>
      <trkpt lat="49.64558" lon="5.02249">
        <ele>154.91</ele>
        <time>2018-08-16T13:27:34Z</time>
      </trkpt>
      <trkpt lat="49.64564" lon="5.0223">
        <ele>153.95</ele>
        <time>2018-08-16T13:27:48Z</time>
      </trkpt>
      <trkpt lat="49.64577" lon="5.022">
        <ele>153.95</ele>
        <time>2018-08-16T13:28:07Z</time>
      </trkpt>
      <trkpt lat="49.64579" lon="5.02194">
        <ele>153.95</ele>
        <time>2018-08-16T13:28:12Z</time>
      </trkpt>
      <trkpt lat="49.6459" lon="5.02167">
        <ele>152.99</ele>
        <time>2018-08-16T13:28:29Z</time>
      </trkpt>
      <trkpt lat="49.64601" lon="5.02141">
        <ele>152.99</ele>
        <time>2018-08-16T13:28:46Z</time>
      </trkpt>
      <trkpt lat="49.64603" lon="5.02135">
        <ele>153.47</ele>
        <time>2018-08-16T13:28:50Z</time>
      </trkpt>
      <trkpt lat="49.64608" lon="5.02126">
        <ele>154.43</ele>
        <time>2018-08-16T13:28:55Z</time>
      </trkpt>
      <trkpt lat="49.64619" lon="5.02102">
        <ele>156.35</ele>
        <time>2018-08-16T13:29:12Z</time>
      </trkpt>
      <trkpt lat="49.64627" lon="5.02078">
        <ele>154.43</ele>
        <time>2018-08-16T13:29:28Z</time>
      </trkpt>
      <trkpt lat="49.64628" lon="5.02077">
        <ele>154.43</ele>
        <time>2018-08-16T13:29:29Z</time>
      </trkpt>
      <trkpt lat="49.6464" lon="5.02046">
        <ele>152.99</ele>
        <time>2018-08-16T13:29:49Z</time>
      </trkpt>
      <trkpt lat="49.64642" lon="5.02044">
        <ele>153.47</ele>
        <time>2018-08-16T13:29:51Z</time>
      </trkpt>
      <trkpt lat="49.64653" lon="5.02017">
        <ele>152.99</ele>
        <time>2018-08-16T13:30:09Z</time>
      </trkpt>
      <trkpt lat="49.64665" lon="5.01987">
        <ele>152.99</ele>
        <time>2018-08-16T13:30:29Z</time>
      </trkpt>
      <trkpt lat="49.64675" lon="5.01961">
        <ele>153.47</ele>
        <time>2018-08-16T13:30:46Z</time>
      </trkpt>
      <trkpt lat="49.64686" lon="5.01934">
        <ele>154.43</ele>
        <time>2018-08-16T13:31:03Z</time>
      </trkpt>
      <trkpt lat="49.64689" lon="5.01927">
        <ele>154.43</ele>
        <time>2018-08-16T13:31:09Z</time>
      </trkpt>
      <trkpt lat="49.64692" lon="5.01921">
        <ele>154.43</ele>
        <time>2018-08-16T13:31:13Z</time>
      </trkpt>
      <trkpt lat="49.64702" lon="5.01896">
        <ele>153.95</ele>
        <time>2018-08-16T13:31:30Z</time>
      </trkpt>
      <trkpt lat="49.64713" lon="5.01868">
        <ele>154.91</ele>
        <time>2018-08-16T13:31:49Z</time>
      </trkpt>
      <trkpt lat="49.64724" lon="5.01836">
        <ele>154.43</ele>
        <time>2018-08-16T13:32:09Z</time>
      </trkpt>
      <trkpt lat="49.64733" lon="5.01808">
        <ele>153.95</ele>
        <time>2018-08-16T13:32:27Z</time>
      </trkpt>
      <trkpt lat="49.64734" lon="5.01805">
        <ele>153.95</ele>
        <time>2018-08-16T13:32:29Z</time>
      </trkpt>
      <trkpt lat="49.64744" lon="5.01776">
        <ele>152.99</ele>
        <time>2018-08-16T13:32:48Z</time>
      </trkpt>
      <trkpt lat="49.64746" lon="5.01772">
        <ele>152.99</ele>
        <time>2018-08-16T13:32:51Z</time>
      </trkpt>
      <trkpt lat="49.64749" lon="5.01764">
        <ele>153.47</ele>
        <time>2018-08-16T13:32:56Z</time>
      </trkpt>
      <trkpt lat="49.64751" lon="5.01758">
        <ele>153.47</ele>
        <time>2018-08-16T13:33:03Z</time>
      </trkpt>
      <trkpt lat="49.64763" lon="5.01735">
        <ele>152.99</ele>
        <time>2018-08-16T13:33:20Z</time>
      </trkpt>
      <trkpt lat="49.64775" lon="5.01713">
        <ele>153.95</ele>
        <time>2018-08-16T13:33:35Z</time>
      </trkpt>
      <trkpt lat="49.64781" lon="5.01685">
        <ele>157.79</ele>
        <time>2018-08-16T13:33:50Z</time>
      </trkpt>
      <trkpt lat="49.64781" lon="5.01686">
        <ele>159.72</ele>
        <time>2018-08-16T13:34:11Z</time>
      </trkpt>
      <trkpt lat="49.64781" lon="5.01686">
        <ele>159.72</ele>
        <time>2018-08-16T13:34:16Z</time>
      </trkpt>
      <trkpt lat="49.64765" lon="5.01674">
        <ele>159.24</ele>
        <time>2018-08-16T13:34:32Z</time>
      </trkpt>
      <trkpt lat="49.64755" lon="5.01662">
        <ele>159.24</ele>
        <time>2018-08-16T13:34:43Z</time>
      </trkpt>
      <trkpt lat="49.64755" lon="5.01652">
        <ele>158.75</ele>
        <time>2018-08-16T13:34:49Z</time>
      </trkpt>
      <trkpt lat="49.64759" lon="5.01637">
        <ele>158.75</ele>
        <time>2018-08-16T13:35:02Z</time>
      </trkpt>
      <trkpt lat="49.6477" lon="5.01611">
        <ele>157.79</ele>
        <time>2018-08-16T13:35:18Z</time>
      </trkpt>
      <trkpt lat="49.64778" lon="5.0159">
        <ele>158.27</ele>
        <time>2018-08-16T13:35:31Z</time>
      </trkpt>
      <trkpt lat="49.64784" lon="5.01568">
        <ele>158.27</ele>
        <time>2018-08-16T13:35:46Z</time>
      </trkpt>
      <trkpt lat="49.64793" lon="5.01543">
        <ele>159.24</ele>
        <time>2018-08-16T13:35:59Z</time>
      </trkpt>
      <trkpt lat="49.64801" lon="5.01518">
        <ele>159.72</ele>
        <time>2018-08-16T13:36:13Z</time>
      </trkpt>
      <trkpt lat="49.64808" lon="5.01496">
        <ele>160.68</ele>
        <time>2018-08-16T13:36:27Z</time>
      </trkpt>
      <trkpt lat="49.64811" lon="5.01485">
        <ele>160.2</ele>
        <time>2018-08-16T13:36:34Z</time>
      </trkpt>
      <trkpt lat="49.64819" lon="5.01458">
        <ele>159.72</ele>
        <time>2018-08-16T13:36:50Z</time>
      </trkpt>
      <trkpt lat="49.64827" lon="5.01436">
        <ele>158.75</ele>
        <time>2018-08-16T13:37:04Z</time>
      </trkpt>
      <trkpt lat="49.64834" lon="5.01415">
        <ele>158.75</ele>
        <time>2018-08-16T13:37:16Z</time>
      </trkpt>
      <trkpt lat="49.64843" lon="5.0139">
        <ele>158.75</ele>
        <time>2018-08-16T13:37:31Z</time>
      </trkpt>
      <trkpt lat="49.6485" lon="5.01366">
        <ele>158.27</ele>
        <time>2018-08-16T13:37:45Z</time>
      </trkpt>
      <trkpt lat="49.64858" lon="5.01343">
        <ele>158.27</ele>
        <time>2018-08-16T13:37:59Z</time>
      </trkpt>
      <trkpt lat="49.64864" lon="5.01323">
        <ele>158.27</ele>
        <time>2018-08-16T13:38:11Z</time>
      </trkpt>
      <trkpt lat="49.64871" lon="5.01302">
        <ele>157.79</ele>
        <time>2018-08-16T13:38:25Z</time>
      </trkpt>
      <trkpt lat="49.64877" lon="5.01283">
        <ele>158.27</ele>
        <time>2018-08-16T13:38:37Z</time>
      </trkpt>
      <trkpt lat="49.64882" lon="5.01262">
        <ele>157.31</ele>
        <time>2018-08-16T13:38:50Z</time>
      </trkpt>
      <trkpt lat="49.64886" lon="5.01242">
        <ele>155.39</ele>
        <time>2018-08-16T13:39:04Z</time>
      </trkpt>
      <trkpt lat="49.64892" lon="5.01214">
        <ele>153.95</ele>
        <time>2018-08-16T13:39:18Z</time>
      </trkpt>
      <trkpt lat="49.64895" lon="5.01194">
        <ele>153.47</ele>
        <time>2018-08-16T13:39:30Z</time>
      </trkpt>
      <trkpt lat="49.64895" lon="5.01193">
        <ele>153.47</ele>
        <time>2018-08-16T13:39:31Z</time>
      </trkpt>
      <trkpt lat="49.64896" lon="5.01185">
        <ele>153.47</ele>
        <time>2018-08-16T13:39:35Z</time>
      </trkpt>
      <trkpt lat="49.64898" lon="5.01162">
        <ele>152.03</ele>
        <time>2018-08-16T13:39:48Z</time>
      </trkpt>
      <trkpt lat="49.64901" lon="5.01141">
        <ele>151.06</ele>
        <time>2018-08-16T13:40:00Z</time>
      </trkpt>
      <trkpt lat="49.64902" lon="5.01118">
        <ele>151.54</ele>
        <time>2018-08-16T13:40:14Z</time>
      </trkpt>
      <trkpt lat="49.64903" lon="5.01096">
        <ele>151.54</ele>
        <time>2018-08-16T13:40:27Z</time>
      </trkpt>
      <trkpt lat="49.64903" lon="5.01073">
        <ele>152.03</ele>
        <time>2018-08-16T13:40:40Z</time>
      </trkpt>
      <trkpt lat="49.64902" lon="5.01052">
        <ele>151.54</ele>
        <time>2018-08-16T13:40:54Z</time>
      </trkpt>
      <trkpt lat="49.64902" lon="5.0103">
        <ele>152.99</ele>
        <time>2018-08-16T13:41:06Z</time>
      </trkpt>
      <trkpt lat="49.64901" lon="5.01006">
        <ele>152.03</ele>
        <time>2018-08-16T13:41:19Z</time>
      </trkpt>
      <trkpt lat="49.649" lon="5.00984">
        <ele>152.99</ele>
        <time>2018-08-16T13:41:31Z</time>
      </trkpt>
      <trkpt lat="49.64899" lon="5.00967">
        <ele>152.51</ele>
        <time>2018-08-16T13:41:42Z</time>
      </trkpt>
      <trkpt lat="49.64898" lon="5.00947">
        <ele>152.99</ele>
        <time>2018-08-16T13:41:54Z</time>
      </trkpt>
      <trkpt lat="49.64897" lon="5.00924">
        <ele>152.51</ele>
        <time>2018-08-16T13:42:07Z</time>
      </trkpt>
      <trkpt lat="49.64897" lon="5.00903">
        <ele>153.95</ele>
        <time>2018-08-16T13:42:20Z</time>
      </trkpt>
      <trkpt lat="49.64897" lon="5.00882">
        <ele>154.43</ele>
        <time>2018-08-16T13:42:32Z</time>
      </trkpt>
      <trkpt lat="49.64897" lon="5.00863">
        <ele>153.95</ele>
        <time>2018-08-16T13:42:43Z</time>
      </trkpt>
      <trkpt lat="49.64897" lon="5.00844">
        <ele>153.47</ele>
        <time>2018-08-16T13:42:54Z</time>
      </trkpt>
      <trkpt lat="49.64898" lon="5.00823">
        <ele>152.51</ele>
        <time>2018-08-16T13:43:06Z</time>
      </trkpt>
      <trkpt lat="49.64897" lon="5.00803">
        <ele>152.03</ele>
        <time>2018-08-16T13:43:17Z</time>
      </trkpt>
      <trkpt lat="49.64898" lon="5.00787">
        <ele>151.06</ele>
        <time>2018-08-16T13:43:27Z</time>
      </trkpt>
      <trkpt lat="49.64899" lon="5.00772">
        <ele>151.06</ele>
        <time>2018-08-16T13:43:38Z</time>
      </trkpt>
      <trkpt lat="49.64901" lon="5.00752">
        <ele>152.51</ele>
        <time>2018-08-16T13:43:49Z</time>
      </trkpt>
      <trkpt lat="49.64903" lon="5.00732">
        <ele>152.03</ele>
        <time>2018-08-16T13:44:01Z</time>
      </trkpt>
      <trkpt lat="49.64905" lon="5.00713">
        <ele>151.54</ele>
        <time>2018-08-16T13:44:13Z</time>
      </trkpt>
      <trkpt lat="49.64907" lon="5.00695">
        <ele>152.03</ele>
        <time>2018-08-16T13:44:25Z</time>
      </trkpt>
      <trkpt lat="49.6491" lon="5.00669">
        <ele>152.03</ele>
        <time>2018-08-16T13:44:39Z</time>
      </trkpt>
      <trkpt lat="49.64913" lon="5.00649">
        <ele>152.03</ele>
        <time>2018-08-16T13:44:51Z</time>
      </trkpt>
      <trkpt lat="49.64916" lon="5.00628">
        <ele>152.51</ele>
        <time>2018-08-16T13:45:05Z</time>
      </trkpt>
      <trkpt lat="49.6492" lon="5.00606">
        <ele>151.54</ele>
        <time>2018-08-16T13:45:17Z</time>
      </trkpt>
      <trkpt lat="49.64924" lon="5.00586">
        <ele>151.06</ele>
        <time>2018-08-16T13:45:29Z</time>
      </trkpt>
      <trkpt lat="49.64927" lon="5.00567">
        <ele>151.06</ele>
        <time>2018-08-16T13:45:41Z</time>
      </trkpt>
      <trkpt lat="49.64932" lon="5.00545">
        <ele>151.54</ele>
        <time>2018-08-16T13:45:54Z</time>
      </trkpt>
      <trkpt lat="49.64935" lon="5.00533">
        <ele>151.06</ele>
        <time>2018-08-16T13:46:02Z</time>
      </trkpt>
      <trkpt lat="49.6494" lon="5.00512">
        <ele>151.54</ele>
        <time>2018-08-16T13:46:15Z</time>
      </trkpt>
      <trkpt lat="49.64945" lon="5.00492">
        <ele>150.58</ele>
        <time>2018-08-16T13:46:27Z</time>
      </trkpt>
      <trkpt lat="49.6495" lon="5.00474">
        <ele>150.1</ele>
        <time>2018-08-16T13:46:38Z</time>
      </trkpt>
      <trkpt lat="49.64955" lon="5.00456">
        <ele>151.54</ele>
        <time>2018-08-16T13:46:50Z</time>
      </trkpt>
      <trkpt lat="49.64961" lon="5.00438">
        <ele>152.03</ele>
        <time>2018-08-16T13:47:02Z</time>
      </trkpt>
      <trkpt lat="49.64965" lon="5.00426">
        <ele>152.03</ele>
        <time>2018-08-16T13:47:10Z</time>
      </trkpt>
      <trkpt lat="49.64972" lon="5.00405">
        <ele>152.51</ele>
        <time>2018-08-16T13:47:23Z</time>
      </trkpt>
      <trkpt lat="49.64978" lon="5.00389">
        <ele>152.51</ele>
        <time>2018-08-16T13:47:35Z</time>
      </trkpt>
      <trkpt lat="49.64985" lon="5.00371">
        <ele>152.51</ele>
        <time>2018-08-16T13:47:47Z</time>
      </trkpt>
      <trkpt lat="49.64993" lon="5.00351">
        <ele>153.47</ele>
        <time>2018-08-16T13:48:00Z</time>
      </trkpt>
      <trkpt lat="49.65001" lon="5.00335">
        <ele>152.51</ele>
        <time>2018-08-16T13:48:13Z</time>
      </trkpt>
      <trkpt lat="49.65009" lon="5.00315">
        <ele>154.43</ele>
        <time>2018-08-16T13:48:26Z</time>
      </trkpt>
      <trkpt lat="49.65017" lon="5.00302">
        <ele>154.43</ele>
        <time>2018-08-16T13:48:37Z</time>
      </trkpt>
      <trkpt lat="49.65024" lon="5.00285">
        <ele>154.43</ele>
        <time>2018-08-16T13:48:50Z</time>
      </trkpt>
      <trkpt lat="49.65032" lon="5.00268">
        <ele>154.43</ele>
        <time>2018-08-16T13:49:02Z</time>
      </trkpt>
      <trkpt lat="49.65042" lon="5.00247">
        <ele>153.47</ele>
        <time>2018-08-16T13:49:15Z</time>
      </trkpt>
      <trkpt lat="49.65049" lon="5.00231">
        <ele>153.47</ele>
        <time>2018-08-16T13:49:26Z</time>
      </trkpt>
      <trkpt lat="49.65056" lon="5.00216">
        <ele>152.03</ele>
        <time>2018-08-16T13:49:38Z</time>
      </trkpt>
      <trkpt lat="49.65066" lon="5.00197">
        <ele>152.03</ele>
        <time>2018-08-16T13:49:50Z</time>
      </trkpt>
      <trkpt lat="49.65068" lon="5.00191">
        <ele>151.06</ele>
        <time>2018-08-16T13:49:55Z</time>
      </trkpt>
      <trkpt lat="49.65077" lon="5.00172">
        <ele>151.54</ele>
        <time>2018-08-16T13:50:08Z</time>
      </trkpt>
      <trkpt lat="49.65083" lon="5.00161">
        <ele>151.54</ele>
        <time>2018-08-16T13:50:16Z</time>
      </trkpt>
      <trkpt lat="49.65092" lon="5.00143">
        <ele>150.58</ele>
        <time>2018-08-16T13:50:29Z</time>
      </trkpt>
      <trkpt lat="49.65099" lon="5.00128">
        <ele>148.66</ele>
        <time>2018-08-16T13:50:41Z</time>
      </trkpt>
      <trkpt lat="49.65106" lon="5.00112">
        <ele>148.18</ele>
        <time>2018-08-16T13:50:53Z</time>
      </trkpt>
      <trkpt lat="49.65107" lon="5.0011">
        <ele>148.18</ele>
        <time>2018-08-16T13:50:54Z</time>
      </trkpt>
      <trkpt lat="49.65118" lon="5.00091">
        <ele>148.18</ele>
        <time>2018-08-16T13:51:07Z</time>
      </trkpt>
      <trkpt lat="49.65127" lon="5.00073">
        <ele>148.66</ele>
        <time>2018-08-16T13:51:18Z</time>
      </trkpt>
      <trkpt lat="49.65136" lon="5.00054">
        <ele>150.1</ele>
        <time>2018-08-16T13:51:32Z</time>
      </trkpt>
      <trkpt lat="49.65146" lon="5.00033">
        <ele>150.58</ele>
        <time>2018-08-16T13:51:47Z</time>
      </trkpt>
      <trkpt lat="49.65153" lon="5.00011">
        <ele>150.1</ele>
        <time>2018-08-16T13:52:00Z</time>
      </trkpt>
      <trkpt lat="49.65162" lon="4.99995">
        <ele>149.14</ele>
        <time>2018-08-16T13:52:11Z</time>
      </trkpt>
      <trkpt lat="49.65171" lon="4.99974">
        <ele>148.66</ele>
        <time>2018-08-16T13:52:24Z</time>
      </trkpt>
      <trkpt lat="49.65179" lon="4.9995">
        <ele>149.62</ele>
        <time>2018-08-16T13:52:39Z</time>
      </trkpt>
      <trkpt lat="49.65186" lon="4.9993">
        <ele>152.51</ele>
        <time>2018-08-16T13:52:52Z</time>
      </trkpt>
      <trkpt lat="49.65197" lon="4.99909">
        <ele>153.47</ele>
        <time>2018-08-16T13:53:04Z</time>
      </trkpt>
      <trkpt lat="49.65206" lon="4.99896">
        <ele>153.95</ele>
        <time>2018-08-16T13:53:16Z</time>
      </trkpt>
      <trkpt lat="49.65216" lon="4.9989">
        <ele>155.39</ele>
        <time>2018-08-16T13:53:28Z</time>
      </trkpt>
      <trkpt lat="49.6522" lon="4.99883">
        <ele>154.91</ele>
        <time>2018-08-16T13:53:32Z</time>
      </trkpt>
      <trkpt lat="49.6523" lon="4.9987">
        <ele>155.39</ele>
        <time>2018-08-16T13:53:46Z</time>
      </trkpt>
      <trkpt lat="49.65241" lon="4.99856">
        <ele>156.83</ele>
        <time>2018-08-16T13:54:01Z</time>
      </trkpt>
      <trkpt lat="49.65243" lon="4.99854">
        <ele>157.31</ele>
        <time>2018-08-16T13:54:04Z</time>
      </trkpt>
      <trkpt lat="49.65249" lon="4.99845">
        <ele>156.83</ele>
        <time>2018-08-16T13:54:12Z</time>
      </trkpt>
      <trkpt lat="49.65261" lon="4.99826">
        <ele>155.39</ele>
        <time>2018-08-16T13:54:28Z</time>
      </trkpt>
      <trkpt lat="49.65268" lon="4.99805">
        <ele>153.95</ele>
        <time>2018-08-16T13:54:41Z</time>
      </trkpt>
      <trkpt lat="49.65278" lon="4.99781">
        <ele>149.14</ele>
        <time>2018-08-16T13:54:55Z</time>
      </trkpt>
      <trkpt lat="49.65286" lon="4.99761">
        <ele>147.22</ele>
        <time>2018-08-16T13:55:09Z</time>
      </trkpt>
      <trkpt lat="49.65295" lon="4.99741">
        <ele>145.78</ele>
        <time>2018-08-16T13:55:23Z</time>
      </trkpt>
      <trkpt lat="49.65303" lon="4.99721">
        <ele>145.3</ele>
        <time>2018-08-16T13:55:37Z</time>
      </trkpt>
      <trkpt lat="49.65311" lon="4.99701">
        <ele>146.26</ele>
        <time>2018-08-16T13:55:51Z</time>
      </trkpt>
      <trkpt lat="49.6532" lon="4.99683">
        <ele>145.78</ele>
        <time>2018-08-16T13:56:04Z</time>
      </trkpt>
      <trkpt lat="49.65329" lon="4.99661">
        <ele>144.82</ele>
        <time>2018-08-16T13:56:19Z</time>
      </trkpt>
      <trkpt lat="49.65338" lon="4.99639">
        <ele>145.78</ele>
        <time>2018-08-16T13:56:34Z</time>
      </trkpt>
      <trkpt lat="49.65347" lon="4.99617">
        <ele>145.3</ele>
        <time>2018-08-16T13:56:50Z</time>
      </trkpt>
      <trkpt lat="49.65356" lon="4.996">
        <ele>144.34</ele>
        <time>2018-08-16T13:57:04Z</time>
      </trkpt>
      <trkpt lat="49.65365" lon="4.99581">
        <ele>146.26</ele>
        <time>2018-08-16T13:57:19Z</time>
      </trkpt>
      <trkpt lat="49.65375" lon="4.99565">
        <ele>146.74</ele>
        <time>2018-08-16T13:57:33Z</time>
      </trkpt>
      <trkpt lat="49.65385" lon="4.99547">
        <ele>146.74</ele>
        <time>2018-08-16T13:57:46Z</time>
      </trkpt>
      <trkpt lat="49.65398" lon="4.99527">
        <ele>146.74</ele>
        <time>2018-08-16T13:58:02Z</time>
      </trkpt>
      <trkpt lat="49.65409" lon="4.99509">
        <ele>146.74</ele>
        <time>2018-08-16T13:58:16Z</time>
      </trkpt>
      <trkpt lat="49.65417" lon="4.99496">
        <ele>148.18</ele>
        <time>2018-08-16T13:58:27Z</time>
      </trkpt>
      <trkpt lat="49.65428" lon="4.99478">
        <ele>146.26</ele>
        <time>2018-08-16T13:58:42Z</time>
      </trkpt>
      <trkpt lat="49.6544" lon="4.99459">
        <ele>144.82</ele>
        <time>2018-08-16T13:58:57Z</time>
      </trkpt>
      <trkpt lat="49.65452" lon="4.99438">
        <ele>143.37</ele>
        <time>2018-08-16T13:59:12Z</time>
      </trkpt>
      <trkpt lat="49.65462" lon="4.9942">
        <ele>143.37</ele>
        <time>2018-08-16T13:59:26Z</time>
      </trkpt>
      <trkpt lat="49.65472" lon="4.99404">
        <ele>143.37</ele>
        <time>2018-08-16T13:59:39Z</time>
      </trkpt>
      <trkpt lat="49.65482" lon="4.99388">
        <ele>143.37</ele>
        <time>2018-08-16T13:59:53Z</time>
      </trkpt>
      <trkpt lat="49.65492" lon="4.99371">
        <ele>143.37</ele>
        <time>2018-08-16T14:00:07Z</time>
      </trkpt>
      <trkpt lat="49.65492" lon="4.9937">
        <ele>143.85</ele>
        <time>2018-08-16T14:00:08Z</time>
      </trkpt>
      <trkpt lat="49.65497" lon="4.99363">
        <ele>143.85</ele>
        <time>2018-08-16T14:00:14Z</time>
      </trkpt>
      <trkpt lat="49.65505" lon="4.99351">
        <ele>145.3</ele>
        <time>2018-08-16T14:00:26Z</time>
      </trkpt>
      <trkpt lat="49.65517" lon="4.99331">
        <ele>146.74</ele>
        <time>2018-08-16T14:00:41Z</time>
      </trkpt>
      <trkpt lat="49.65527" lon="4.99313">
        <ele>147.22</ele>
        <time>2018-08-16T14:00:55Z</time>
      </trkpt>
      <trkpt lat="49.65536" lon="4.99297">
        <ele>148.66</ele>
        <time>2018-08-16T14:01:08Z</time>
      </trkpt>
      <trkpt lat="49.65546" lon="4.99282">
        <ele>148.66</ele>
        <time>2018-08-16T14:01:21Z</time>
      </trkpt>
      <trkpt lat="49.65557" lon="4.99265">
        <ele>146.74</ele>
        <time>2018-08-16T14:01:35Z</time>
      </trkpt>
      <trkpt lat="49.65565" lon="4.99252">
        <ele>145.78</ele>
        <time>2018-08-16T14:01:49Z</time>
      </trkpt>
      <trkpt lat="49.65565" lon="4.99248">
        <ele>146.74</ele>
        <time>2018-08-16T14:02:00Z</time>
      </trkpt>
      <trkpt lat="49.65565" lon="4.99245">
        <ele>150.58</ele>
        <time>2018-08-16T14:02:15Z</time>
      </trkpt>
      <trkpt lat="49.65564" lon="4.99242">
        <ele>150.58</ele>
        <time>2018-08-16T14:02:19Z</time>
      </trkpt>
      <trkpt lat="49.65563" lon="4.99238">
        <ele>151.06</ele>
        <time>2018-08-16T14:02:22Z</time>
      </trkpt>
      <trkpt lat="49.65559" lon="4.99233">
        <ele>151.54</ele>
        <time>2018-08-16T14:02:26Z</time>
      </trkpt>
      <trkpt lat="49.65545" lon="4.9922">
        <ele>152.99</ele>
        <time>2018-08-16T14:02:42Z</time>
      </trkpt>
      <trkpt lat="49.65528" lon="4.99208">
        <ele>154.91</ele>
        <time>2018-08-16T14:02:59Z</time>
      </trkpt>
      <trkpt lat="49.65512" lon="4.992">
        <ele>157.79</ele>
        <time>2018-08-16T14:03:15Z</time>
      </trkpt>
      <trkpt lat="49.65499" lon="4.99195">
        <ele>159.72</ele>
        <time>2018-08-16T14:03:29Z</time>
      </trkpt>
      <trkpt lat="49.65498" lon="4.99195">
        <ele>159.24</ele>
        <time>2018-08-16T14:03:36Z</time>
      </trkpt>
      <trkpt lat="49.65496" lon="4.99188">
        <ele>157.79</ele>
        <time>2018-08-16T14:03:49Z</time>
      </trkpt>
      <trkpt lat="49.65495" lon="4.99188">
        <ele>156.83</ele>
        <time>2018-08-16T14:04:09Z</time>
      </trkpt>
      <trkpt lat="49.65495" lon="4.99188">
        <ele>155.87</ele>
        <time>2018-08-16T14:04:29Z</time>
      </trkpt>
      <trkpt lat="49.65494" lon="4.99187">
        <ele>155.87</ele>
        <time>2018-08-16T14:04:43Z</time>
      </trkpt>
      <trkpt lat="49.65495" lon="4.99187">
        <ele>156.35</ele>
        <time>2018-08-16T14:05:04Z</time>
      </trkpt>
      <trkpt lat="49.65495" lon="4.99187">
        <ele>156.35</ele>
        <time>2018-08-16T14:05:21Z</time>
      </trkpt>
      <trkpt lat="49.65494" lon="4.99189">
        <ele>155.39</ele>
        <time>2018-08-16T14:05:46Z</time>
      </trkpt>
      <trkpt lat="49.65494" lon="4.99188">
        <ele>154.91</ele>
        <time>2018-08-16T14:05:57Z</time>
      </trkpt>
      <trkpt lat="49.65502" lon="4.99194">
        <ele>153.47</ele>
        <time>2018-08-16T14:06:11Z</time>
      </trkpt>
      <trkpt lat="49.65502" lon="4.99194">
        <ele>153.47</ele>
        <time>2018-08-16T14:06:31Z</time>
      </trkpt>
      <trkpt lat="49.65502" lon="4.99194">
        <ele>153.95</ele>
        <time>2018-08-16T14:06:51Z</time>
      </trkpt>
      <trkpt lat="49.65501" lon="4.99194">
        <ele>154.43</ele>
        <time>2018-08-16T14:07:20Z</time>
      </trkpt>
      <trkpt lat="49.65501" lon="4.99193">
        <ele>154.43</ele>
        <time>2018-08-16T14:07:43Z</time>
      </trkpt>
      <trkpt lat="49.65501" lon="4.99193">
        <ele>154.43</ele>
        <time>2018-08-16T14:08:08Z</time>
      </trkpt>
      <trkpt lat="49.65501" lon="4.99194">
        <ele>155.39</ele>
        <time>2018-08-16T14:08:33Z</time>
      </trkpt>
      <trkpt lat="49.655" lon="4.99193">
        <ele>156.35</ele>
        <time>2018-08-16T14:08:55Z</time>
      </trkpt>
      <trkpt lat="49.655" lon="4.99194">
        <ele>156.35</ele>
        <time>2018-08-16T14:09:17Z</time>
      </trkpt>
      <trkpt lat="49.655" lon="4.99194">
        <ele>156.35</ele>
        <time>2018-08-16T14:09:37Z</time>
      </trkpt>
      <trkpt lat="49.655" lon="4.99194">
        <ele>156.83</ele>
        <time>2018-08-16T14:10:02Z</time>
      </trkpt>
      <trkpt lat="49.65501" lon="4.99193">
        <ele>155.87</ele>
        <time>2018-08-16T14:10:28Z</time>
      </trkpt>
      <trkpt lat="49.65501" lon="4.99193">
        <ele>154.43</ele>
        <time>2018-08-16T14:10:59Z</time>
      </trkpt>
      <trkpt lat="49.655" lon="4.99193">
        <ele>154.43</ele>
        <time>2018-08-16T14:11:20Z</time>
      </trkpt>
      <trkpt lat="49.655" lon="4.99193">
        <ele>153.95</ele>
        <time>2018-08-16T14:11:51Z</time>
      </trkpt>
      <trkpt lat="49.655" lon="4.99194">
        <ele>154.43</ele>
        <time>2018-08-16T14:12:15Z</time>
      </trkpt>
      <trkpt lat="49.655" lon="4.99193">
        <ele>154.43</ele>
        <time>2018-08-16T14:12:39Z</time>
      </trkpt>
      <trkpt lat="49.655" lon="4.99193">
        <ele>155.39</ele>
        <time>2018-08-16T14:12:58Z</time>
      </trkpt>
      <trkpt lat="49.655" lon="4.99193">
        <ele>154.91</ele>
        <time>2018-08-16T14:13:19Z</time>
      </trkpt>
      <trkpt lat="49.655" lon="4.99193">
        <ele>154.91</ele>
        <time>2018-08-16T14:13:47Z</time>
      </trkpt>
      <trkpt lat="49.65501" lon="4.99193">
        <ele>155.39</ele>
        <time>2018-08-16T14:14:03Z</time>
      </trkpt>
      <trkpt lat="49.65501" lon="4.99194">
        <ele>155.87</ele>
        <time>2018-08-16T14:14:28Z</time>
      </trkpt>
      <trkpt lat="49.655" lon="4.99194">
        <ele>156.35</ele>
        <time>2018-08-16T14:14:50Z</time>
      </trkpt>
      <trkpt lat="49.655" lon="4.99195">
        <ele>155.87</ele>
        <time>2018-08-16T14:15:16Z</time>
      </trkpt>
      <trkpt lat="49.655" lon="4.99195">
        <ele>155.87</ele>
        <time>2018-08-16T14:15:41Z</time>
      </trkpt>
      <trkpt lat="49.655" lon="4.99195">
        <ele>155.87</ele>
        <time>2018-08-16T14:16:01Z</time>
      </trkpt>
      <trkpt lat="49.655" lon="4.99194">
        <ele>155.87</ele>
        <time>2018-08-16T14:16:21Z</time>
      </trkpt>
      <trkpt lat="49.65499" lon="4.99194">
        <ele>155.87</ele>
        <time>2018-08-16T14:16:38Z</time>
      </trkpt>
      <trkpt lat="49.65499" lon="4.99194">
        <ele>156.35</ele>
        <time>2018-08-16T14:17:04Z</time>
      </trkpt>
      <trkpt lat="49.65499" lon="4.99194">
        <ele>156.35</ele>
        <time>2018-08-16T14:17:29Z</time>
      </trkpt>
      <trkpt lat="49.65499" lon="4.99194">
        <ele>156.35</ele>
        <time>2018-08-16T14:17:53Z</time>
      </trkpt>
      <trkpt lat="49.65499" lon="4.99194">
        <ele>156.83</ele>
        <time>2018-08-16T14:18:18Z</time>
      </trkpt>
      <trkpt lat="49.65499" lon="4.99194">
        <ele>156.35</ele>
        <time>2018-08-16T14:18:46Z</time>
      </trkpt>
      <trkpt lat="49.655" lon="4.99193">
        <ele>156.83</ele>
        <time>2018-08-16T14:19:12Z</time>
      </trkpt>
      <trkpt lat="49.655" lon="4.99192">
        <ele>156.83</ele>
        <time>2018-08-16T14:19:40Z</time>
      </trkpt>
      <trkpt lat="49.655" lon="4.99193">
        <ele>156.83</ele>
        <time>2018-08-16T14:20:04Z</time>
      </trkpt>
      <trkpt lat="49.65499" lon="4.99194">
        <ele>156.83</ele>
        <time>2018-08-16T14:20:32Z</time>
      </trkpt>
      <trkpt lat="49.65499" lon="4.99195">
        <ele>156.35</ele>
        <time>2018-08-16T14:21:02Z</time>
      </trkpt>
      <trkpt lat="49.655" lon="4.99194">
        <ele>156.35</ele>
        <time>2018-08-16T14:21:17Z</time>
      </trkpt>
      <trkpt lat="49.65499" lon="4.99192">
        <ele>156.35</ele>
        <time>2018-08-16T14:21:41Z</time>
      </trkpt>
      <trkpt lat="49.655" lon="4.99192">
        <ele>155.87</ele>
        <time>2018-08-16T14:22:01Z</time>
      </trkpt>
      <trkpt lat="49.655" lon="4.99192">
        <ele>155.87</ele>
        <time>2018-08-16T14:22:20Z</time>
      </trkpt>
      <trkpt lat="49.65499" lon="4.99192">
        <ele>154.91</ele>
        <time>2018-08-16T14:22:43Z</time>
      </trkpt>
      <trkpt lat="49.65499" lon="4.99193">
        <ele>154.91</ele>
        <time>2018-08-16T14:23:00Z</time>
      </trkpt>
      <trkpt lat="49.65499" lon="4.99193">
        <ele>154.91</ele>
        <time>2018-08-16T14:23:26Z</time>
      </trkpt>
      <trkpt lat="49.65499" lon="4.99192">
        <ele>154.91</ele>
        <time>2018-08-16T14:23:42Z</time>
      </trkpt>
      <trkpt lat="49.65498" lon="4.99193">
        <ele>155.39</ele>
        <time>2018-08-16T14:23:48Z</time>
      </trkpt>
      <trkpt lat="49.65495" lon="4.99202">
        <ele>154.91</ele>
        <time>2018-08-16T14:23:53Z</time>
      </trkpt>
      <trkpt lat="49.65487" lon="4.99221">
        <ele>154.43</ele>
        <time>2018-08-16T14:24:07Z</time>
      </trkpt>
      <trkpt lat="49.65478" lon="4.99252">
        <ele>154.91</ele>
        <time>2018-08-16T14:24:26Z</time>
      </trkpt>
      <trkpt lat="49.65469" lon="4.99274">
        <ele>155.87</ele>
        <time>2018-08-16T14:24:39Z</time>
      </trkpt>
      <trkpt lat="49.6546" lon="4.99282">
        <ele>155.39</ele>
        <time>2018-08-16T14:24:49Z</time>
      </trkpt>
      <trkpt lat="49.65452" lon="4.99277">
        <ele>154.91</ele>
        <time>2018-08-16T14:25:00Z</time>
      </trkpt>
      <trkpt lat="49.65445" lon="4.9927">
        <ele>155.39</ele>
        <time>2018-08-16T14:25:06Z</time>
      </trkpt>
      <trkpt lat="49.65431" lon="4.99248">
        <ele>153.95</ele>
        <time>2018-08-16T14:25:24Z</time>
      </trkpt>
      <trkpt lat="49.65424" lon="4.99237">
        <ele>153.95</ele>
        <time>2018-08-16T14:25:34Z</time>
      </trkpt>
      <trkpt lat="49.65411" lon="4.99217">
        <ele>153.47</ele>
        <time>2018-08-16T14:25:50Z</time>
      </trkpt>
      <trkpt lat="49.65397" lon="4.99198">
        <ele>155.87</ele>
        <time>2018-08-16T14:26:06Z</time>
      </trkpt>
      <trkpt lat="49.65387" lon="4.99187">
        <ele>157.31</ele>
        <time>2018-08-16T14:26:16Z</time>
      </trkpt>
      <trkpt lat="49.65376" lon="4.99195">
        <ele>158.75</ele>
        <time>2018-08-16T14:26:27Z</time>
      </trkpt>
      <trkpt lat="49.65375" lon="4.99179">
        <ele>159.24</ele>
        <time>2018-08-16T14:26:41Z</time>
      </trkpt>
      <trkpt lat="49.6537" lon="4.99166">
        <ele>158.27</ele>
        <time>2018-08-16T14:26:49Z</time>
      </trkpt>
      <trkpt lat="49.65362" lon="4.9915">
        <ele>156.83</ele>
        <time>2018-08-16T14:27:03Z</time>
      </trkpt>
      <trkpt lat="49.65351" lon="4.9913">
        <ele>156.35</ele>
        <time>2018-08-16T14:27:18Z</time>
      </trkpt>
      <trkpt lat="49.65345" lon="4.99114">
        <ele>156.35</ele>
        <time>2018-08-16T14:27:27Z</time>
      </trkpt>
      <trkpt lat="49.65337" lon="4.99088">
        <ele>156.35</ele>
        <time>2018-08-16T14:27:43Z</time>
      </trkpt>
      <trkpt lat="49.65328" lon="4.99065">
        <ele>154.91</ele>
        <time>2018-08-16T14:27:58Z</time>
      </trkpt>
      <trkpt lat="49.65325" lon="4.9905">
        <ele>156.83</ele>
        <time>2018-08-16T14:28:09Z</time>
      </trkpt>
      <trkpt lat="49.65311" lon="4.9903">
        <ele>155.39</ele>
        <time>2018-08-16T14:28:24Z</time>
      </trkpt>
      <trkpt lat="49.65295" lon="4.99014">
        <ele>155.39</ele>
        <time>2018-08-16T14:28:40Z</time>
      </trkpt>
      <trkpt lat="49.65278" lon="4.98999">
        <ele>154.91</ele>
        <time>2018-08-16T14:28:56Z</time>
      </trkpt>
      <trkpt lat="49.65259" lon="4.98985">
        <ele>154.91</ele>
        <time>2018-08-16T14:29:15Z</time>
      </trkpt>
      <trkpt lat="49.65243" lon="4.98971">
        <ele>155.39</ele>
        <time>2018-08-16T14:29:32Z</time>
      </trkpt>
      <trkpt lat="49.65226" lon="4.98956">
        <ele>154.91</ele>
        <time>2018-08-16T14:29:49Z</time>
      </trkpt>
      <trkpt lat="49.65209" lon="4.9894">
        <ele>153.95</ele>
        <time>2018-08-16T14:30:04Z</time>
      </trkpt>
      <trkpt lat="49.65194" lon="4.98924">
        <ele>153.95</ele>
        <time>2018-08-16T14:30:20Z</time>
      </trkpt>
      <trkpt lat="49.6518" lon="4.9891">
        <ele>152.03</ele>
        <time>2018-08-16T14:30:35Z</time>
      </trkpt>
      <trkpt lat="49.65166" lon="4.98898">
        <ele>152.51</ele>
        <time>2018-08-16T14:30:50Z</time>
      </trkpt>
      <trkpt lat="49.6515" lon="4.98882">
        <ele>151.06</ele>
        <time>2018-08-16T14:31:05Z</time>
      </trkpt>
      <trkpt lat="49.65133" lon="4.98867">
        <ele>150.58</ele>
        <time>2018-08-16T14:31:22Z</time>
      </trkpt>
      <trkpt lat="49.65131" lon="4.98866">
        <ele>151.06</ele>
        <time>2018-08-16T14:31:25Z</time>
      </trkpt>
      <trkpt lat="49.65125" lon="4.9886">
        <ele>151.54</ele>
        <time>2018-08-16T14:31:30Z</time>
      </trkpt>
      <trkpt lat="49.65113" lon="4.98847">
        <ele>152.03</ele>
        <time>2018-08-16T14:31:44Z</time>
      </trkpt>
      <trkpt lat="49.65096" lon="4.98832">
        <ele>153.95</ele>
        <time>2018-08-16T14:32:01Z</time>
      </trkpt>
      <trkpt lat="49.6508" lon="4.98816">
        <ele>153.47</ele>
        <time>2018-08-16T14:32:17Z</time>
      </trkpt>
      <trkpt lat="49.65066" lon="4.98801">
        <ele>153.95</ele>
        <time>2018-08-16T14:32:31Z</time>
      </trkpt>
      <trkpt lat="49.6505" lon="4.98787">
        <ele>155.39</ele>
        <time>2018-08-16T14:32:47Z</time>
      </trkpt>
      <trkpt lat="49.65035" lon="4.98774">
        <ele>155.39</ele>
        <time>2018-08-16T14:33:01Z</time>
      </trkpt>
      <trkpt lat="49.65019" lon="4.98758">
        <ele>154.91</ele>
        <time>2018-08-16T14:33:17Z</time>
      </trkpt>
      <trkpt lat="49.65003" lon="4.98747">
        <ele>155.39</ele>
        <time>2018-08-16T14:33:33Z</time>
      </trkpt>
      <trkpt lat="49.64997" lon="4.98751">
        <ele>154.91</ele>
        <time>2018-08-16T14:33:41Z</time>
      </trkpt>
      <trkpt lat="49.64993" lon="4.98756">
        <ele>154.91</ele>
        <time>2018-08-16T14:33:45Z</time>
      </trkpt>
      <trkpt lat="49.64987" lon="4.98774">
        <ele>153.95</ele>
        <time>2018-08-16T14:33:58Z</time>
      </trkpt>
      <trkpt lat="49.64978" lon="4.98797">
        <ele>153.95</ele>
        <time>2018-08-16T14:34:13Z</time>
      </trkpt>
      <trkpt lat="49.64977" lon="4.988">
        <ele>153.47</ele>
        <time>2018-08-16T14:34:16Z</time>
      </trkpt>
      <trkpt lat="49.64968" lon="4.98823">
        <ele>154.43</ele>
        <time>2018-08-16T14:34:30Z</time>
      </trkpt>
      <trkpt lat="49.64966" lon="4.9883">
        <ele>154.43</ele>
        <time>2018-08-16T14:34:36Z</time>
      </trkpt>
      <trkpt lat="49.64961" lon="4.98849">
        <ele>153.95</ele>
        <time>2018-08-16T14:34:49Z</time>
      </trkpt>
      <trkpt lat="49.64959" lon="4.98878">
        <ele>155.87</ele>
        <time>2018-08-16T14:35:01Z</time>
      </trkpt>
      <trkpt lat="49.64959" lon="4.98883">
        <ele>156.35</ele>
        <time>2018-08-16T14:35:06Z</time>
      </trkpt>
      <trkpt lat="49.64957" lon="4.98903">
        <ele>156.35</ele>
        <time>2018-08-16T14:35:17Z</time>
      </trkpt>
      <trkpt lat="49.64957" lon="4.98905">
        <ele>156.83</ele>
        <time>2018-08-16T14:35:32Z</time>
      </trkpt>
      <trkpt lat="49.64957" lon="4.98907">
        <ele>155.87</ele>
        <time>2018-08-16T14:35:46Z</time>
      </trkpt>
      <trkpt lat="49.64958" lon="4.98917">
        <ele>156.83</ele>
        <time>2018-08-16T14:35:56Z</time>
      </trkpt>
      <trkpt lat="49.64954" lon="4.98919">
        <ele>157.79</ele>
        <time>2018-08-16T14:36:08Z</time>
      </trkpt>
      <trkpt lat="49.64951" lon="4.98919">
        <ele>158.27</ele>
        <time>2018-08-16T14:36:19Z</time>
      </trkpt>
      <trkpt lat="49.6495" lon="4.98919">
        <ele>157.79</ele>
        <time>2018-08-16T14:36:24Z</time>
      </trkpt>
      <trkpt lat="49.64946" lon="4.98916">
        <ele>158.27</ele>
        <time>2018-08-16T14:36:30Z</time>
      </trkpt>
      <trkpt lat="49.64931" lon="4.98905">
        <ele>157.31</ele>
        <time>2018-08-16T14:36:45Z</time>
      </trkpt>
      <trkpt lat="49.64911" lon="4.98894">
        <ele>157.79</ele>
        <time>2018-08-16T14:37:01Z</time>
      </trkpt>
      <trkpt lat="49.6489" lon="4.98885">
        <ele>159.24</ele>
        <time>2018-08-16T14:37:20Z</time>
      </trkpt>
      <trkpt lat="49.64874" lon="4.98877">
        <ele>158.27</ele>
        <time>2018-08-16T14:37:38Z</time>
      </trkpt>
      <trkpt lat="49.64856" lon="4.98867">
        <ele>156.83</ele>
        <time>2018-08-16T14:37:53Z</time>
      </trkpt>
      <trkpt lat="49.64849" lon="4.98863">
        <ele>156.35</ele>
        <time>2018-08-16T14:38:10Z</time>
      </trkpt>
      <trkpt lat="49.64839" lon="4.98856">
        <ele>157.31</ele>
        <time>2018-08-16T14:38:26Z</time>
      </trkpt>
      <trkpt lat="49.64829" lon="4.9885">
        <ele>156.35</ele>
        <time>2018-08-16T14:38:37Z</time>
      </trkpt>
      <trkpt lat="49.64812" lon="4.98841">
        <ele>155.87</ele>
        <time>2018-08-16T14:38:51Z</time>
      </trkpt>
      <trkpt lat="49.64797" lon="4.98834">
        <ele>154.91</ele>
        <time>2018-08-16T14:39:07Z</time>
      </trkpt>
      <trkpt lat="49.64787" lon="4.98827">
        <ele>155.39</ele>
        <time>2018-08-16T14:39:19Z</time>
      </trkpt>
      <trkpt lat="49.64772" lon="4.98816">
        <ele>155.87</ele>
        <time>2018-08-16T14:39:34Z</time>
      </trkpt>
      <trkpt lat="49.6477" lon="4.98812">
        <ele>155.87</ele>
        <time>2018-08-16T14:39:38Z</time>
      </trkpt>
      <trkpt lat="49.64764" lon="4.98788">
        <ele>158.75</ele>
        <time>2018-08-16T14:39:54Z</time>
      </trkpt>
      <trkpt lat="49.64769" lon="4.98761">
        <ele>157.79</ele>
        <time>2018-08-16T14:40:09Z</time>
      </trkpt>
      <trkpt lat="49.6477" lon="4.98744">
        <ele>156.35</ele>
        <time>2018-08-16T14:40:20Z</time>
      </trkpt>
      <trkpt lat="49.64771" lon="4.98738">
        <ele>156.35</ele>
        <time>2018-08-16T14:40:23Z</time>
      </trkpt>
      <trkpt lat="49.64775" lon="4.98716">
        <ele>153.95</ele>
        <time>2018-08-16T14:40:37Z</time>
      </trkpt>
      <trkpt lat="49.64775" lon="4.9871">
        <ele>153.95</ele>
        <time>2018-08-16T14:40:40Z</time>
      </trkpt>
      <trkpt lat="49.64773" lon="4.9869">
        <ele>155.87</ele>
        <time>2018-08-16T14:40:53Z</time>
      </trkpt>
      <trkpt lat="49.64773" lon="4.98674">
        <ele>157.79</ele>
        <time>2018-08-16T14:41:05Z</time>
      </trkpt>
      <trkpt lat="49.64774" lon="4.98675">
        <ele>157.31</ele>
        <time>2018-08-16T14:41:11Z</time>
      </trkpt>
      <trkpt lat="49.64778" lon="4.98653">
        <ele>157.79</ele>
        <time>2018-08-16T14:41:25Z</time>
      </trkpt>
      <trkpt lat="49.64779" lon="4.98644">
        <ele>158.27</ele>
        <time>2018-08-16T14:41:30Z</time>
      </trkpt>
      <trkpt lat="49.6477" lon="4.98623">
        <ele>159.24</ele>
        <time>2018-08-16T14:41:44Z</time>
      </trkpt>
      <trkpt lat="49.64768" lon="4.9862">
        <ele>159.24</ele>
        <time>2018-08-16T14:41:46Z</time>
      </trkpt>
      <trkpt lat="49.64758" lon="4.98607">
        <ele>159.72</ele>
        <time>2018-08-16T14:41:59Z</time>
      </trkpt>
      <trkpt lat="49.64757" lon="4.98606">
        <ele>160.2</ele>
        <time>2018-08-16T14:42:00Z</time>
      </trkpt>
      <trkpt lat="49.64751" lon="4.98601">
        <ele>160.2</ele>
        <time>2018-08-16T14:42:04Z</time>
      </trkpt>
      <trkpt lat="49.64737" lon="4.98589">
        <ele>160.68</ele>
        <time>2018-08-16T14:42:18Z</time>
      </trkpt>
      <trkpt lat="49.64725" lon="4.98584">
        <ele>158.75</ele>
        <time>2018-08-16T14:42:29Z</time>
      </trkpt>
      <trkpt lat="49.64716" lon="4.98578">
        <ele>158.27</ele>
        <time>2018-08-16T14:42:36Z</time>
      </trkpt>
      <trkpt lat="49.64708" lon="4.98573">
        <ele>158.27</ele>
        <time>2018-08-16T14:42:45Z</time>
      </trkpt>
      <trkpt lat="49.64697" lon="4.98564">
        <ele>158.75</ele>
        <time>2018-08-16T14:42:54Z</time>
      </trkpt>
      <trkpt lat="49.64691" lon="4.9856">
        <ele>158.75</ele>
        <time>2018-08-16T14:43:02Z</time>
      </trkpt>
      <trkpt lat="49.64677" lon="4.98549">
        <ele>159.24</ele>
        <time>2018-08-16T14:43:16Z</time>
      </trkpt>
      <trkpt lat="49.64665" lon="4.98538">
        <ele>160.2</ele>
        <time>2018-08-16T14:43:29Z</time>
      </trkpt>
      <trkpt lat="49.64654" lon="4.9853">
        <ele>160.68</ele>
        <time>2018-08-16T14:43:41Z</time>
      </trkpt>
      <trkpt lat="49.64643" lon="4.98522">
        <ele>161.64</ele>
        <time>2018-08-16T14:43:53Z</time>
      </trkpt>
      <trkpt lat="49.6463" lon="4.98512">
        <ele>163.08</ele>
        <time>2018-08-16T14:44:07Z</time>
      </trkpt>
      <trkpt lat="49.64617" lon="4.98499">
        <ele>161.64</ele>
        <time>2018-08-16T14:44:22Z</time>
      </trkpt>
      <trkpt lat="49.64599" lon="4.98488">
        <ele>163.56</ele>
        <time>2018-08-16T14:44:36Z</time>
      </trkpt>
      <trkpt lat="49.64581" lon="4.98481">
        <ele>163.08</ele>
        <time>2018-08-16T14:44:52Z</time>
      </trkpt>
      <trkpt lat="49.64566" lon="4.98472">
        <ele>163.56</ele>
        <time>2018-08-16T14:45:07Z</time>
      </trkpt>
      <trkpt lat="49.64551" lon="4.98462">
        <ele>162.12</ele>
        <time>2018-08-16T14:45:23Z</time>
      </trkpt>
      <trkpt lat="49.64537" lon="4.98456">
        <ele>160.68</ele>
        <time>2018-08-16T14:45:37Z</time>
      </trkpt>
      <trkpt lat="49.64521" lon="4.98447">
        <ele>160.68</ele>
        <time>2018-08-16T14:45:52Z</time>
      </trkpt>
      <trkpt lat="49.64503" lon="4.98437">
        <ele>161.64</ele>
        <time>2018-08-16T14:46:08Z</time>
      </trkpt>
      <trkpt lat="49.64491" lon="4.9843">
        <ele>163.56</ele>
        <time>2018-08-16T14:46:22Z</time>
      </trkpt>
      <trkpt lat="49.6448" lon="4.98418">
        <ele>164.04</ele>
        <time>2018-08-16T14:46:36Z</time>
      </trkpt>
      <trkpt lat="49.64478" lon="4.98417">
        <ele>164.04</ele>
        <time>2018-08-16T14:46:38Z</time>
      </trkpt>
      <trkpt lat="49.64462" lon="4.98409">
        <ele>164.04</ele>
        <time>2018-08-16T14:46:54Z</time>
      </trkpt>
      <trkpt lat="49.64446" lon="4.98399">
        <ele>164.52</ele>
        <time>2018-08-16T14:47:09Z</time>
      </trkpt>
      <trkpt lat="49.64434" lon="4.98391">
        <ele>165</ele>
        <time>2018-08-16T14:47:23Z</time>
      </trkpt>
      <trkpt lat="49.64415" lon="4.9838">
        <ele>162.12</ele>
        <time>2018-08-16T14:47:39Z</time>
      </trkpt>
      <trkpt lat="49.644" lon="4.98368">
        <ele>161.16</ele>
        <time>2018-08-16T14:47:56Z</time>
      </trkpt>
      <trkpt lat="49.64385" lon="4.98359">
        <ele>163.56</ele>
        <time>2018-08-16T14:48:10Z</time>
      </trkpt>
      <trkpt lat="49.6438" lon="4.98357">
        <ele>164.04</ele>
        <time>2018-08-16T14:48:15Z</time>
      </trkpt>
      <trkpt lat="49.64375" lon="4.98352">
        <ele>163.56</ele>
        <time>2018-08-16T14:48:19Z</time>
      </trkpt>
      <trkpt lat="49.6436" lon="4.9834">
        <ele>164.04</ele>
        <time>2018-08-16T14:48:35Z</time>
      </trkpt>
      <trkpt lat="49.64345" lon="4.98327">
        <ele>161.16</ele>
        <time>2018-08-16T14:48:49Z</time>
      </trkpt>
      <trkpt lat="49.64339" lon="4.98322">
        <ele>161.16</ele>
        <time>2018-08-16T14:48:54Z</time>
      </trkpt>
      <trkpt lat="49.64326" lon="4.98311">
        <ele>161.64</ele>
        <time>2018-08-16T14:49:10Z</time>
      </trkpt>
      <trkpt lat="49.64325" lon="4.98308">
        <ele>162.12</ele>
        <time>2018-08-16T14:49:12Z</time>
      </trkpt>
      <trkpt lat="49.64313" lon="4.98297">
        <ele>163.08</ele>
        <time>2018-08-16T14:49:29Z</time>
      </trkpt>
      <trkpt lat="49.64311" lon="4.98297">
        <ele>162.6</ele>
        <time>2018-08-16T14:49:56Z</time>
      </trkpt>
      <trkpt lat="49.6431" lon="4.98297">
        <ele>162.12</ele>
        <time>2018-08-16T14:50:24Z</time>
      </trkpt>
      <trkpt lat="49.64309" lon="4.98297">
        <ele>161.16</ele>
        <time>2018-08-16T14:50:55Z</time>
      </trkpt>
      <trkpt lat="49.64309" lon="4.98296">
        <ele>160.68</ele>
        <time>2018-08-16T14:51:35Z</time>
      </trkpt>
      <trkpt lat="49.64309" lon="4.98295">
        <ele>161.16</ele>
        <time>2018-08-16T14:52:19Z</time>
      </trkpt>
      <trkpt lat="49.6431" lon="4.98295">
        <ele>162.12</ele>
        <time>2018-08-16T14:53:00Z</time>
      </trkpt>
      <trkpt lat="49.6431" lon="4.98294">
        <ele>162.12</ele>
        <time>2018-08-16T14:53:43Z</time>
      </trkpt>
      <trkpt lat="49.64309" lon="4.98293">
        <ele>162.12</ele>
        <time>2018-08-16T14:54:27Z</time>
      </trkpt>
      <trkpt lat="49.64309" lon="4.98294">
        <ele>162.12</ele>
        <time>2018-08-16T14:55:08Z</time>
      </trkpt>
      <trkpt lat="49.64309" lon="4.98295">
        <ele>161.64</ele>
        <time>2018-08-16T14:55:28Z</time>
      </trkpt>
      <trkpt lat="49.64306" lon="4.98291">
        <ele>162.12</ele>
        <time>2018-08-16T14:55:43Z</time>
      </trkpt>
      <trkpt lat="49.64299" lon="4.98287">
        <ele>164.52</ele>
        <time>2018-08-16T14:55:58Z</time>
      </trkpt>
      <trkpt lat="49.64289" lon="4.9828">
        <ele>163.08</ele>
        <time>2018-08-16T14:56:10Z</time>
      </trkpt>
      <trkpt lat="49.64279" lon="4.9827">
        <ele>166.45</ele>
        <time>2018-08-16T14:56:23Z</time>
      </trkpt>
      <trkpt lat="49.64266" lon="4.98258">
        <ele>169.33</ele>
        <time>2018-08-16T14:56:37Z</time>
      </trkpt>
      <trkpt lat="49.64255" lon="4.98245">
        <ele>168.85</ele>
        <time>2018-08-16T14:56:51Z</time>
      </trkpt>
      <trkpt lat="49.64237" lon="4.98231">
        <ele>165</ele>
        <time>2018-08-16T14:57:06Z</time>
      </trkpt>
      <trkpt lat="49.64222" lon="4.98219">
        <ele>161.16</ele>
        <time>2018-08-16T14:57:21Z</time>
      </trkpt>
      <trkpt lat="49.6421" lon="4.98206">
        <ele>158.75</ele>
        <time>2018-08-16T14:57:35Z</time>
      </trkpt>
      <trkpt lat="49.64198" lon="4.98194">
        <ele>157.31</ele>
        <time>2018-08-16T14:57:48Z</time>
      </trkpt>
      <trkpt lat="49.64187" lon="4.98184">
        <ele>157.31</ele>
        <time>2018-08-16T14:58:02Z</time>
      </trkpt>
      <trkpt lat="49.64185" lon="4.98182">
        <ele>157.31</ele>
        <time>2018-08-16T14:58:04Z</time>
      </trkpt>
      <trkpt lat="49.64172" lon="4.9817">
        <ele>160.68</ele>
        <time>2018-08-16T14:58:20Z</time>
      </trkpt>
      <trkpt lat="49.64161" lon="4.98157">
        <ele>165.48</ele>
        <time>2018-08-16T14:58:36Z</time>
      </trkpt>
      <trkpt lat="49.64156" lon="4.98151">
        <ele>167.41</ele>
        <time>2018-08-16T14:58:42Z</time>
      </trkpt>
      <trkpt lat="49.64144" lon="4.98139">
        <ele>171.73</ele>
        <time>2018-08-16T14:58:56Z</time>
      </trkpt>
      <trkpt lat="49.64134" lon="4.98128">
        <ele>174.14</ele>
        <time>2018-08-16T14:59:07Z</time>
      </trkpt>
      <trkpt lat="49.64125" lon="4.9812">
        <ele>174.62</ele>
        <time>2018-08-16T14:59:17Z</time>
      </trkpt>
      <trkpt lat="49.64117" lon="4.98113">
        <ele>173.17</ele>
        <time>2018-08-16T14:59:29Z</time>
      </trkpt>
      <trkpt lat="49.64113" lon="4.98108">
        <ele>172.69</ele>
        <time>2018-08-16T14:59:34Z</time>
      </trkpt>
      <trkpt lat="49.64099" lon="4.98095">
        <ele>173.66</ele>
        <time>2018-08-16T14:59:48Z</time>
      </trkpt>
      <trkpt lat="49.6409" lon="4.98087">
        <ele>173.17</ele>
        <time>2018-08-16T15:00:00Z</time>
      </trkpt>
      <trkpt lat="49.64081" lon="4.98077">
        <ele>174.14</ele>
        <time>2018-08-16T15:00:11Z</time>
      </trkpt>
      <trkpt lat="49.64068" lon="4.98065">
        <ele>176.06</ele>
        <time>2018-08-16T15:00:25Z</time>
      </trkpt>
      <trkpt lat="49.64059" lon="4.98056">
        <ele>178.46</ele>
        <time>2018-08-16T15:00:36Z</time>
      </trkpt>
      <trkpt lat="49.64047" lon="4.98042">
        <ele>182.31</ele>
        <time>2018-08-16T15:00:49Z</time>
      </trkpt>
      <trkpt lat="49.64031" lon="4.98029">
        <ele>181.83</ele>
        <time>2018-08-16T15:01:03Z</time>
      </trkpt>
      <trkpt lat="49.64026" lon="4.98024">
        <ele>180.87</ele>
        <time>2018-08-16T15:01:08Z</time>
      </trkpt>
      <trkpt lat="49.64016" lon="4.98012">
        <ele>181.83</ele>
        <time>2018-08-16T15:01:21Z</time>
      </trkpt>
      <trkpt lat="49.6401" lon="4.98007">
        <ele>179.9</ele>
        <time>2018-08-16T15:01:32Z</time>
      </trkpt>
      <trkpt lat="49.63996" lon="4.97996">
        <ele>179.42</ele>
        <time>2018-08-16T15:01:46Z</time>
      </trkpt>
      <trkpt lat="49.63975" lon="4.97979">
        <ele>177.02</ele>
        <time>2018-08-16T15:02:00Z</time>
      </trkpt>
      <trkpt lat="49.63958" lon="4.97965">
        <ele>172.21</ele>
        <time>2018-08-16T15:02:14Z</time>
      </trkpt>
      <trkpt lat="49.63941" lon="4.97953">
        <ele>167.89</ele>
        <time>2018-08-16T15:02:24Z</time>
      </trkpt>
      <trkpt lat="49.63929" lon="4.97942">
        <ele>167.89</ele>
        <time>2018-08-16T15:02:39Z</time>
      </trkpt>
      <trkpt lat="49.63926" lon="4.97937">
        <ele>167.89</ele>
        <time>2018-08-16T15:02:45Z</time>
      </trkpt>
      <trkpt lat="49.63916" lon="4.97925">
        <ele>170.29</ele>
        <time>2018-08-16T15:02:59Z</time>
      </trkpt>
      <trkpt lat="49.63905" lon="4.97914">
        <ele>170.77</ele>
        <time>2018-08-16T15:03:11Z</time>
      </trkpt>
      <trkpt lat="49.63904" lon="4.97912">
        <ele>170.77</ele>
        <time>2018-08-16T15:03:15Z</time>
      </trkpt>
      <trkpt lat="49.63893" lon="4.97901">
        <ele>171.73</ele>
        <time>2018-08-16T15:03:29Z</time>
      </trkpt>
      <trkpt lat="49.63876" lon="4.97886">
        <ele>171.73</ele>
        <time>2018-08-16T15:03:43Z</time>
      </trkpt>
      <trkpt lat="49.63861" lon="4.97871">
        <ele>169.33</ele>
        <time>2018-08-16T15:03:57Z</time>
      </trkpt>
      <trkpt lat="49.63848" lon="4.97858">
        <ele>167.41</ele>
        <time>2018-08-16T15:04:09Z</time>
      </trkpt>
      <trkpt lat="49.63837" lon="4.9785">
        <ele>164.52</ele>
        <time>2018-08-16T15:04:21Z</time>
      </trkpt>
      <trkpt lat="49.63824" lon="4.97841">
        <ele>162.6</ele>
        <time>2018-08-16T15:04:35Z</time>
      </trkpt>
      <trkpt lat="49.63809" lon="4.97828">
        <ele>164.04</ele>
        <time>2018-08-16T15:04:49Z</time>
      </trkpt>
      <trkpt lat="49.63808" lon="4.97827">
        <ele>164.04</ele>
        <time>2018-08-16T15:04:50Z</time>
      </trkpt>
      <trkpt lat="49.63802" lon="4.97824">
        <ele>164.04</ele>
        <time>2018-08-16T15:04:54Z</time>
      </trkpt>
      <trkpt lat="49.63792" lon="4.9781">
        <ele>165</ele>
        <time>2018-08-16T15:05:05Z</time>
      </trkpt>
      <trkpt lat="49.63781" lon="4.97798">
        <ele>162.6</ele>
        <time>2018-08-16T15:05:19Z</time>
      </trkpt>
      <trkpt lat="49.63771" lon="4.97784">
        <ele>163.56</ele>
        <time>2018-08-16T15:05:30Z</time>
      </trkpt>
      <trkpt lat="49.63757" lon="4.97774">
        <ele>166.45</ele>
        <time>2018-08-16T15:05:45Z</time>
      </trkpt>
      <trkpt lat="49.63747" lon="4.97764">
        <ele>165.96</ele>
        <time>2018-08-16T15:05:57Z</time>
      </trkpt>
      <trkpt lat="49.63741" lon="4.97762">
        <ele>165.48</ele>
        <time>2018-08-16T15:06:01Z</time>
      </trkpt>
      <trkpt lat="49.63725" lon="4.97755">
        <ele>164.52</ele>
        <time>2018-08-16T15:06:16Z</time>
      </trkpt>
      <trkpt lat="49.63712" lon="4.97746">
        <ele>166.93</ele>
        <time>2018-08-16T15:06:30Z</time>
      </trkpt>
      <trkpt lat="49.63711" lon="4.97744">
        <ele>166.45</ele>
        <time>2018-08-16T15:06:31Z</time>
      </trkpt>
      <trkpt lat="49.63699" lon="4.97733">
        <ele>167.41</ele>
        <time>2018-08-16T15:06:45Z</time>
      </trkpt>
      <trkpt lat="49.63687" lon="4.97724">
        <ele>167.89</ele>
        <time>2018-08-16T15:06:58Z</time>
      </trkpt>
      <trkpt lat="49.63678" lon="4.9772">
        <ele>167.89</ele>
        <time>2018-08-16T15:07:08Z</time>
      </trkpt>
      <trkpt lat="49.63662" lon="4.97707">
        <ele>165.48</ele>
        <time>2018-08-16T15:07:24Z</time>
      </trkpt>
      <trkpt lat="49.63651" lon="4.97699">
        <ele>165</ele>
        <time>2018-08-16T15:07:35Z</time>
      </trkpt>
      <trkpt lat="49.63636" lon="4.97686">
        <ele>165</ele>
        <time>2018-08-16T15:07:50Z</time>
      </trkpt>
      <trkpt lat="49.63625" lon="4.97675">
        <ele>166.45</ele>
        <time>2018-08-16T15:08:02Z</time>
      </trkpt>
      <trkpt lat="49.63614" lon="4.97666">
        <ele>166.93</ele>
        <time>2018-08-16T15:08:15Z</time>
      </trkpt>
      <trkpt lat="49.63611" lon="4.97664">
        <ele>166.93</ele>
        <time>2018-08-16T15:08:18Z</time>
      </trkpt>
      <trkpt lat="49.63596" lon="4.9767">
        <ele>165.96</ele>
        <time>2018-08-16T15:08:32Z</time>
      </trkpt>
      <trkpt lat="49.63583" lon="4.97679">
        <ele>164.04</ele>
        <time>2018-08-16T15:08:47Z</time>
      </trkpt>
      <trkpt lat="49.63573" lon="4.97693">
        <ele>164.52</ele>
        <time>2018-08-16T15:09:01Z</time>
      </trkpt>
      <trkpt lat="49.63569" lon="4.977">
        <ele>163.56</ele>
        <time>2018-08-16T15:09:08Z</time>
      </trkpt>
      <trkpt lat="49.63568" lon="4.97703">
        <ele>163.08</ele>
        <time>2018-08-16T15:09:14Z</time>
      </trkpt>
      <trkpt lat="49.6356" lon="4.97719">
        <ele>161.64</ele>
        <time>2018-08-16T15:09:27Z</time>
      </trkpt>
      <trkpt lat="49.6355" lon="4.97739">
        <ele>160.2</ele>
        <time>2018-08-16T15:09:42Z</time>
      </trkpt>
      <trkpt lat="49.63547" lon="4.97746">
        <ele>160.2</ele>
        <time>2018-08-16T15:09:48Z</time>
      </trkpt>
      <trkpt lat="49.63537" lon="4.97765">
        <ele>161.16</ele>
        <time>2018-08-16T15:10:03Z</time>
      </trkpt>
      <trkpt lat="49.6353" lon="4.97779">
        <ele>161.16</ele>
        <time>2018-08-16T15:10:14Z</time>
      </trkpt>
      <trkpt lat="49.63516" lon="4.97795">
        <ele>162.6</ele>
        <time>2018-08-16T15:10:30Z</time>
      </trkpt>
      <trkpt lat="49.63502" lon="4.97809">
        <ele>163.08</ele>
        <time>2018-08-16T15:10:45Z</time>
      </trkpt>
      <trkpt lat="49.63492" lon="4.97821">
        <ele>162.6</ele>
        <time>2018-08-16T15:10:58Z</time>
      </trkpt>
      <trkpt lat="49.63484" lon="4.97832">
        <ele>164.04</ele>
        <time>2018-08-16T15:11:11Z</time>
      </trkpt>
      <trkpt lat="49.63477" lon="4.97845">
        <ele>165</ele>
        <time>2018-08-16T15:11:21Z</time>
      </trkpt>
      <trkpt lat="49.63475" lon="4.97846">
        <ele>165</ele>
        <time>2018-08-16T15:11:22Z</time>
      </trkpt>
      <trkpt lat="49.63467" lon="4.97854">
        <ele>166.45</ele>
        <time>2018-08-16T15:11:31Z</time>
      </trkpt>
      <trkpt lat="49.63457" lon="4.9787">
        <ele>168.37</ele>
        <time>2018-08-16T15:11:44Z</time>
      </trkpt>
      <trkpt lat="49.63447" lon="4.97884">
        <ele>173.17</ele>
        <time>2018-08-16T15:11:57Z</time>
      </trkpt>
      <trkpt lat="49.63434" lon="4.97895">
        <ele>171.25</ele>
        <time>2018-08-16T15:12:09Z</time>
      </trkpt>
      <trkpt lat="49.63421" lon="4.97903">
        <ele>171.25</ele>
        <time>2018-08-16T15:12:22Z</time>
      </trkpt>
      <trkpt lat="49.63406" lon="4.97915">
        <ele>174.14</ele>
        <time>2018-08-16T15:12:36Z</time>
      </trkpt>
      <trkpt lat="49.63394" lon="4.97924">
        <ele>174.14</ele>
        <time>2018-08-16T15:12:49Z</time>
      </trkpt>
      <trkpt lat="49.63383" lon="4.97936">
        <ele>174.14</ele>
        <time>2018-08-16T15:13:01Z</time>
      </trkpt>
      <trkpt lat="49.63383" lon="4.97939">
        <ele>174.14</ele>
        <time>2018-08-16T15:13:06Z</time>
      </trkpt>
      <trkpt lat="49.63389" lon="4.97953">
        <ele>176.06</ele>
        <time>2018-08-16T15:13:16Z</time>
      </trkpt>
      <trkpt lat="49.63398" lon="4.9797">
        <ele>175.58</ele>
        <time>2018-08-16T15:13:28Z</time>
      </trkpt>
      <trkpt lat="49.63402" lon="4.97979">
        <ele>175.1</ele>
        <time>2018-08-16T15:13:36Z</time>
      </trkpt>
      <trkpt lat="49.63409" lon="4.97998">
        <ele>176.54</ele>
        <time>2018-08-16T15:13:49Z</time>
      </trkpt>
      <trkpt lat="49.63416" lon="4.98012">
        <ele>176.54</ele>
        <time>2018-08-16T15:14:01Z</time>
      </trkpt>
      <trkpt lat="49.63425" lon="4.98024">
        <ele>175.58</ele>
        <time>2018-08-16T15:14:13Z</time>
      </trkpt>
      <trkpt lat="49.63435" lon="4.98035">
        <ele>174.62</ele>
        <time>2018-08-16T15:14:25Z</time>
      </trkpt>
      <trkpt lat="49.63443" lon="4.98042">
        <ele>176.54</ele>
        <time>2018-08-16T15:14:37Z</time>
      </trkpt>
      <trkpt lat="49.63446" lon="4.98041">
        <ele>177.5</ele>
        <time>2018-08-16T15:14:49Z</time>
      </trkpt>
    </trkseg>
  </trk>
</gpx>